<?xml version="1.0" encoding="utf-8"?>
<gpx xmlns:xsi="http://www.w3.org/2001/XMLSchema-instance" xmlns:xsd="http://www.w3.org/2001/XMLSchema" version="1.1" creator="Shapelink.com" xmlns="http://www.topografix.com/GPX/1/1" xmlns:gpxtpx="http://www.garmin.com/xmlschemas/TrackPointExtension/v1">
  <metadata>
    <name>Längdskidåkning - Klassisk 10.18 km, 2013-03-11</name>
    <desc></desc>
    <author><name>Alexander Engvall</name></author> 
    <time>2013-03-11T19:44:25Z</time>
  </metadata>
  <trk>
    <name>Längdskidåkning - Klassisk 10.18 km, 2013-03-11</name>
    <trkseg>
      <trkpt lat="59.59258" lon="17.517169">
        <ele>52.2</ele>
        <time>2013-03-11T19:44:25Z</time>
      </trkpt>
      <trkpt lat="59.5926161" lon="17.5167348">
        <ele>51</ele>
        <time>2013-03-11T19:44:29Z</time>
      </trkpt>
      <trkpt lat="59.5926313" lon="17.5166191">
        <ele>50.4</ele>
        <time>2013-03-11T19:44:30Z</time>
      </trkpt>
      <trkpt lat="59.5926949" lon="17.5163853">
        <ele>49.6</ele>
        <time>2013-03-11T19:44:32Z</time>
      </trkpt>
      <trkpt lat="59.5927782" lon="17.5161654">
        <ele>49.6</ele>
        <time>2013-03-11T19:44:34Z</time>
      </trkpt>
      <trkpt lat="59.5928197" lon="17.5160536">
        <ele>49.8</ele>
        <time>2013-03-11T19:44:35Z</time>
      </trkpt>
      <trkpt lat="59.5929338" lon="17.515695">
        <ele>50</ele>
        <time>2013-03-11T19:44:38Z</time>
      </trkpt>
      <trkpt lat="59.5930583" lon="17.515316">
        <ele>50</ele>
        <time>2013-03-11T19:44:41Z</time>
      </trkpt>
      <trkpt lat="59.5931922" lon="17.5149564">
        <ele>49.2</ele>
        <time>2013-03-11T19:44:44Z</time>
      </trkpt>
      <trkpt lat="59.5932419" lon="17.5148509">
        <ele>48.6</ele>
        <time>2013-03-11T19:44:45Z</time>
      </trkpt>
      <trkpt lat="59.5933538" lon="17.5146949">
        <ele>48.2</ele>
        <time>2013-03-11T19:44:47Z</time>
      </trkpt>
      <trkpt lat="59.5935775" lon="17.514554">
        <ele>46.4</ele>
        <time>2013-03-11T19:44:51Z</time>
      </trkpt>
      <trkpt lat="59.5937744" lon="17.5145281">
        <ele>44.4</ele>
        <time>2013-03-11T19:44:55Z</time>
      </trkpt>
      <trkpt lat="59.5939021" lon="17.5146958">
        <ele>42</ele>
        <time>2013-03-11T19:44:59Z</time>
      </trkpt>
      <trkpt lat="59.5939266" lon="17.5147322">
        <ele>41.8</ele>
        <time>2013-03-11T19:45:00Z</time>
      </trkpt>
      <trkpt lat="59.5939752" lon="17.5148213">
        <ele>41</ele>
        <time>2013-03-11T19:45:02Z</time>
      </trkpt>
      <trkpt lat="59.5940708" lon="17.5149856">
        <ele>40.2</ele>
        <time>2013-03-11T19:45:06Z</time>
      </trkpt>
      <trkpt lat="59.5942426" lon="17.5152034">
        <ele>39.8</ele>
        <time>2013-03-11T19:45:13Z</time>
      </trkpt>
      <trkpt lat="59.5944147" lon="17.5153519">
        <ele>40</ele>
        <time>2013-03-11T19:45:18Z</time>
      </trkpt>
      <trkpt lat="59.5946051" lon="17.5154902">
        <ele>40.4</ele>
        <time>2013-03-11T19:45:25Z</time>
      </trkpt>
      <trkpt lat="59.5948069" lon="17.5156086">
        <ele>42.4</ele>
        <time>2013-03-11T19:45:30Z</time>
      </trkpt>
      <trkpt lat="59.5950192" lon="17.5157067">
        <ele>43</ele>
        <time>2013-03-11T19:45:35Z</time>
      </trkpt>
      <trkpt lat="59.5950642" lon="17.5157082">
        <ele>43.6</ele>
        <time>2013-03-11T19:45:36Z</time>
      </trkpt>
      <trkpt lat="59.5952181" lon="17.5156744">
        <ele>44.4</ele>
        <time>2013-03-11T19:45:40Z</time>
      </trkpt>
      <trkpt lat="59.5953937" lon="17.5155212">
        <ele>47.6</ele>
        <time>2013-03-11T19:45:45Z</time>
      </trkpt>
      <trkpt lat="59.5954832" lon="17.5153087">
        <ele>48.2</ele>
        <time>2013-03-11T19:45:49Z</time>
      </trkpt>
      <trkpt lat="59.5955269" lon="17.515196">
        <ele>48.8</ele>
        <time>2013-03-11T19:45:51Z</time>
      </trkpt>
      <trkpt lat="59.5956008" lon="17.5148653">
        <ele>48.8</ele>
        <time>2013-03-11T19:45:56Z</time>
      </trkpt>
      <trkpt lat="59.5956771" lon="17.5145357">
        <ele>50</ele>
        <time>2013-03-11T19:46:01Z</time>
      </trkpt>
      <trkpt lat="59.5957024" lon="17.5141515">
        <ele>48</ele>
        <time>2013-03-11T19:46:06Z</time>
      </trkpt>
      <trkpt lat="59.595704" lon="17.5138585">
        <ele>46.8</ele>
        <time>2013-03-11T19:46:09Z</time>
      </trkpt>
      <trkpt lat="59.59572" lon="17.5136786">
        <ele>46.4</ele>
        <time>2013-03-11T19:46:10Z</time>
      </trkpt>
      <trkpt lat="59.5957563" lon="17.5131968">
        <ele>45.2</ele>
        <time>2013-03-11T19:46:13Z</time>
      </trkpt>
      <trkpt lat="59.5959087" lon="17.5128042">
        <ele>45.4</ele>
        <time>2013-03-11T19:46:16Z</time>
      </trkpt>
      <trkpt lat="59.5961339" lon="17.5126536">
        <ele>45.2</ele>
        <time>2013-03-11T19:46:19Z</time>
      </trkpt>
      <trkpt lat="59.5963505" lon="17.5125725">
        <ele>45.4</ele>
        <time>2013-03-11T19:46:22Z</time>
      </trkpt>
      <trkpt lat="59.5964168" lon="17.5125623">
        <ele>45.6</ele>
        <time>2013-03-11T19:46:23Z</time>
      </trkpt>
      <trkpt lat="59.5965405" lon="17.5125576">
        <ele>45.8</ele>
        <time>2013-03-11T19:46:25Z</time>
      </trkpt>
      <trkpt lat="59.596653" lon="17.5125632">
        <ele>46.2</ele>
        <time>2013-03-11T19:46:27Z</time>
      </trkpt>
      <trkpt lat="59.596758" lon="17.5125719">
        <ele>45.8</ele>
        <time>2013-03-11T19:46:29Z</time>
      </trkpt>
      <trkpt lat="59.5969156" lon="17.5125541">
        <ele>44.4</ele>
        <time>2013-03-11T19:46:32Z</time>
      </trkpt>
      <trkpt lat="59.5969705" lon="17.5125284">
        <ele>44.6</ele>
        <time>2013-03-11T19:46:33Z</time>
      </trkpt>
      <trkpt lat="59.5971874" lon="17.5124178">
        <ele>43.2</ele>
        <time>2013-03-11T19:46:37Z</time>
      </trkpt>
      <trkpt lat="59.5973513" lon="17.5123669">
        <ele>41.4</ele>
        <time>2013-03-11T19:46:40Z</time>
      </trkpt>
      <trkpt lat="59.5973956" lon="17.5123587">
        <ele>40.2</ele>
        <time>2013-03-11T19:46:41Z</time>
      </trkpt>
      <trkpt lat="59.597595" lon="17.5122706">
        <ele>37.8</ele>
        <time>2013-03-11T19:46:45Z</time>
      </trkpt>
      <trkpt lat="59.5977872" lon="17.5121478">
        <ele>35.8</ele>
        <time>2013-03-11T19:46:49Z</time>
      </trkpt>
      <trkpt lat="59.5978803" lon="17.5120628">
        <ele>34.2</ele>
        <time>2013-03-11T19:46:51Z</time>
      </trkpt>
      <trkpt lat="59.5979812" lon="17.5119423">
        <ele>33.6</ele>
        <time>2013-03-11T19:46:53Z</time>
      </trkpt>
      <trkpt lat="59.5980271" lon="17.5118754">
        <ele>33.2</ele>
        <time>2013-03-11T19:46:54Z</time>
      </trkpt>
      <trkpt lat="59.5981496" lon="17.5116702">
        <ele>34</ele>
        <time>2013-03-11T19:46:57Z</time>
      </trkpt>
      <trkpt lat="59.5982946" lon="17.5113906">
        <ele>32.8</ele>
        <time>2013-03-11T19:47:01Z</time>
      </trkpt>
      <trkpt lat="59.5983572" lon="17.5113205">
        <ele>33.4</ele>
        <time>2013-03-11T19:47:02Z</time>
      </trkpt>
      <trkpt lat="59.59848" lon="17.5112078">
        <ele>33.8</ele>
        <time>2013-03-11T19:47:04Z</time>
      </trkpt>
      <trkpt lat="59.5986823" lon="17.5110735">
        <ele>32.6</ele>
        <time>2013-03-11T19:47:08Z</time>
      </trkpt>
      <trkpt lat="59.5989083" lon="17.5109421">
        <ele>32.2</ele>
        <time>2013-03-11T19:47:12Z</time>
      </trkpt>
      <trkpt lat="59.5990198" lon="17.5109034">
        <ele>32</ele>
        <time>2013-03-11T19:47:14Z</time>
      </trkpt>
      <trkpt lat="59.5991431" lon="17.5108958">
        <ele>31.8</ele>
        <time>2013-03-11T19:47:16Z</time>
      </trkpt>
      <trkpt lat="59.5993043" lon="17.5109766">
        <ele>31.6</ele>
        <time>2013-03-11T19:47:19Z</time>
      </trkpt>
      <trkpt lat="59.5993599" lon="17.5110177">
        <ele>31.4</ele>
        <time>2013-03-11T19:47:20Z</time>
      </trkpt>
      <trkpt lat="59.5994047" lon="17.5110729">
        <ele>31.2</ele>
        <time>2013-03-11T19:47:21Z</time>
      </trkpt>
      <trkpt lat="59.5995003" lon="17.5112848">
        <ele>30.6</ele>
        <time>2013-03-11T19:47:24Z</time>
      </trkpt>
      <trkpt lat="59.599543" lon="17.5115324">
        <ele>30</ele>
        <time>2013-03-11T19:47:27Z</time>
      </trkpt>
      <trkpt lat="59.5995612" lon="17.5116941">
        <ele>30</ele>
        <time>2013-03-11T19:47:29Z</time>
      </trkpt>
      <trkpt lat="59.5995619" lon="17.5118428">
        <ele>29.6</ele>
        <time>2013-03-11T19:47:31Z</time>
      </trkpt>
      <trkpt lat="59.5995078" lon="17.5120506">
        <ele>29.8</ele>
        <time>2013-03-11T19:47:34Z</time>
      </trkpt>
      <trkpt lat="59.5994818" lon="17.5121091">
        <ele>29.6</ele>
        <time>2013-03-11T19:47:35Z</time>
      </trkpt>
      <trkpt lat="59.5993518" lon="17.5122322">
        <ele>28.4</ele>
        <time>2013-03-11T19:47:38Z</time>
      </trkpt>
      <trkpt lat="59.5992798" lon="17.5123109">
        <ele>27.8</ele>
        <time>2013-03-11T19:47:40Z</time>
      </trkpt>
      <trkpt lat="59.5992508" lon="17.5123567">
        <ele>27.8</ele>
        <time>2013-03-11T19:47:41Z</time>
      </trkpt>
      <trkpt lat="59.5992143" lon="17.5124676">
        <ele>28.4</ele>
        <time>2013-03-11T19:47:43Z</time>
      </trkpt>
      <trkpt lat="59.5991606" lon="17.5128587">
        <ele>31.8</ele>
        <time>2013-03-11T19:47:48Z</time>
      </trkpt>
      <trkpt lat="59.5991659" lon="17.5129492">
        <ele>32.4</ele>
        <time>2013-03-11T19:47:49Z</time>
      </trkpt>
      <trkpt lat="59.5991648" lon="17.5131283">
        <ele>33.2</ele>
        <time>2013-03-11T19:47:51Z</time>
      </trkpt>
      <trkpt lat="59.5991512" lon="17.5132194">
        <ele>33.8</ele>
        <time>2013-03-11T19:47:52Z</time>
      </trkpt>
      <trkpt lat="59.5990481" lon="17.5135243">
        <ele>35.4</ele>
        <time>2013-03-11T19:47:56Z</time>
      </trkpt>
      <trkpt lat="59.5989935" lon="17.5136345">
        <ele>36.2</ele>
        <time>2013-03-11T19:47:58Z</time>
      </trkpt>
      <trkpt lat="59.5989241" lon="17.5137299">
        <ele>36.8</ele>
        <time>2013-03-11T19:48:00Z</time>
      </trkpt>
      <trkpt lat="59.5988925" lon="17.5137756">
        <ele>36.8</ele>
        <time>2013-03-11T19:48:01Z</time>
      </trkpt>
      <trkpt lat="59.5987717" lon="17.5138499">
        <ele>39.4</ele>
        <time>2013-03-11T19:48:05Z</time>
      </trkpt>
      <trkpt lat="59.5986896" lon="17.5138625">
        <ele>41.2</ele>
        <time>2013-03-11T19:48:08Z</time>
      </trkpt>
      <trkpt lat="59.5985088" lon="17.5138298">
        <ele>40.4</ele>
        <time>2013-03-11T19:48:14Z</time>
      </trkpt>
      <trkpt lat="59.598322" lon="17.5138376">
        <ele>41</ele>
        <time>2013-03-11T19:48:19Z</time>
      </trkpt>
      <trkpt lat="59.5981162" lon="17.5139035">
        <ele>42</ele>
        <time>2013-03-11T19:48:25Z</time>
      </trkpt>
      <trkpt lat="59.5979333" lon="17.5140536">
        <ele>43.8</ele>
        <time>2013-03-11T19:48:30Z</time>
      </trkpt>
      <trkpt lat="59.5977824" lon="17.5142852">
        <ele>43</ele>
        <time>2013-03-11T19:48:35Z</time>
      </trkpt>
      <trkpt lat="59.5975907" lon="17.514484">
        <ele>43.4</ele>
        <time>2013-03-11T19:48:40Z</time>
      </trkpt>
      <trkpt lat="59.5974481" lon="17.5145925">
        <ele>44</ele>
        <time>2013-03-11T19:48:44Z</time>
      </trkpt>
      <trkpt lat="59.597406" lon="17.51461">
        <ele>44.8</ele>
        <time>2013-03-11T19:48:45Z</time>
      </trkpt>
      <trkpt lat="59.5973337" lon="17.5146322">
        <ele>44.6</ele>
        <time>2013-03-11T19:48:47Z</time>
      </trkpt>
      <trkpt lat="59.5972216" lon="17.5146696">
        <ele>44.6</ele>
        <time>2013-03-11T19:48:50Z</time>
      </trkpt>
      <trkpt lat="59.5970305" lon="17.5147431">
        <ele>44.6</ele>
        <time>2013-03-11T19:48:55Z</time>
      </trkpt>
      <trkpt lat="59.5968528" lon="17.5149182">
        <ele>45.4</ele>
        <time>2013-03-11T19:49:00Z</time>
      </trkpt>
      <trkpt lat="59.5966919" lon="17.5151233">
        <ele>45.2</ele>
        <time>2013-03-11T19:49:05Z</time>
      </trkpt>
      <trkpt lat="59.5965207" lon="17.5152876">
        <ele>45.4</ele>
        <time>2013-03-11T19:49:11Z</time>
      </trkpt>
      <trkpt lat="59.5963624" lon="17.5154554">
        <ele>46</ele>
        <time>2013-03-11T19:49:16Z</time>
      </trkpt>
      <trkpt lat="59.5961696" lon="17.5156145">
        <ele>47.4</ele>
        <time>2013-03-11T19:49:21Z</time>
      </trkpt>
      <trkpt lat="59.5959859" lon="17.5157925">
        <ele>48.8</ele>
        <time>2013-03-11T19:49:26Z</time>
      </trkpt>
      <trkpt lat="59.5958795" lon="17.5159314">
        <ele>49.8</ele>
        <time>2013-03-11T19:49:29Z</time>
      </trkpt>
      <trkpt lat="59.5958236" lon="17.5160416">
        <ele>50</ele>
        <time>2013-03-11T19:49:31Z</time>
      </trkpt>
      <trkpt lat="59.5957754" lon="17.5161615">
        <ele>50.6</ele>
        <time>2013-03-11T19:49:33Z</time>
      </trkpt>
      <trkpt lat="59.5957273" lon="17.5163712">
        <ele>50.2</ele>
        <time>2013-03-11T19:49:36Z</time>
      </trkpt>
      <trkpt lat="59.5957035" lon="17.5166322">
        <ele>50.8</ele>
        <time>2013-03-11T19:49:39Z</time>
      </trkpt>
      <trkpt lat="59.5956869" lon="17.5167706">
        <ele>50.4</ele>
        <time>2013-03-11T19:49:41Z</time>
      </trkpt>
      <trkpt lat="59.595657" lon="17.5169188">
        <ele>50.4</ele>
        <time>2013-03-11T19:49:43Z</time>
      </trkpt>
      <trkpt lat="59.5956124" lon="17.5170563">
        <ele>49.2</ele>
        <time>2013-03-11T19:49:45Z</time>
      </trkpt>
      <trkpt lat="59.595578" lon="17.517141">
        <ele>49.2</ele>
        <time>2013-03-11T19:49:46Z</time>
      </trkpt>
      <trkpt lat="59.5954599" lon="17.5173388">
        <ele>48.6</ele>
        <time>2013-03-11T19:49:48Z</time>
      </trkpt>
      <trkpt lat="59.5953886" lon="17.5174141">
        <ele>48.4</ele>
        <time>2013-03-11T19:49:49Z</time>
      </trkpt>
      <trkpt lat="59.5951367" lon="17.5175066">
        <ele>47.4</ele>
        <time>2013-03-11T19:49:52Z</time>
      </trkpt>
      <trkpt lat="59.5949015" lon="17.5175803">
        <ele>45.8</ele>
        <time>2013-03-11T19:49:55Z</time>
      </trkpt>
      <trkpt lat="59.5946737" lon="17.5176529">
        <ele>45</ele>
        <time>2013-03-11T19:49:58Z</time>
      </trkpt>
      <trkpt lat="59.5944753" lon="17.5177323">
        <ele>43.4</ele>
        <time>2013-03-11T19:50:01Z</time>
      </trkpt>
      <trkpt lat="59.5943016" lon="17.5178385">
        <ele>42.4</ele>
        <time>2013-03-11T19:50:04Z</time>
      </trkpt>
      <trkpt lat="59.5941348" lon="17.5179841">
        <ele>41.6</ele>
        <time>2013-03-11T19:50:07Z</time>
      </trkpt>
      <trkpt lat="59.594082" lon="17.5180221">
        <ele>41.4</ele>
        <time>2013-03-11T19:50:08Z</time>
      </trkpt>
      <trkpt lat="59.5939236" lon="17.5180862">
        <ele>39.8</ele>
        <time>2013-03-11T19:50:11Z</time>
      </trkpt>
      <trkpt lat="59.5937181" lon="17.5181521">
        <ele>38.6</ele>
        <time>2013-03-11T19:50:15Z</time>
      </trkpt>
      <trkpt lat="59.5936227" lon="17.5181911">
        <ele>38</ele>
        <time>2013-03-11T19:50:17Z</time>
      </trkpt>
      <trkpt lat="59.5935199" lon="17.5182825">
        <ele>37.6</ele>
        <time>2013-03-11T19:50:19Z</time>
      </trkpt>
      <trkpt lat="59.5934251" lon="17.5183972">
        <ele>36</ele>
        <time>2013-03-11T19:50:21Z</time>
      </trkpt>
      <trkpt lat="59.5933248" lon="17.5185122">
        <ele>34.8</ele>
        <time>2013-03-11T19:50:23Z</time>
      </trkpt>
      <trkpt lat="59.5931816" lon="17.5186562">
        <ele>34.4</ele>
        <time>2013-03-11T19:50:26Z</time>
      </trkpt>
      <trkpt lat="59.5931347" lon="17.5186743">
        <ele>34</ele>
        <time>2013-03-11T19:50:27Z</time>
      </trkpt>
      <trkpt lat="59.5930293" lon="17.5186742">
        <ele>32.8</ele>
        <time>2013-03-11T19:50:29Z</time>
      </trkpt>
      <trkpt lat="59.5929191" lon="17.5185329">
        <ele>33</ele>
        <time>2013-03-11T19:50:31Z</time>
      </trkpt>
      <trkpt lat="59.5928299" lon="17.5183724">
        <ele>32.8</ele>
        <time>2013-03-11T19:50:33Z</time>
      </trkpt>
      <trkpt lat="59.5927425" lon="17.5182194">
        <ele>33.6</ele>
        <time>2013-03-11T19:50:35Z</time>
      </trkpt>
      <trkpt lat="59.5926137" lon="17.5179917">
        <ele>33.6</ele>
        <time>2013-03-11T19:50:38Z</time>
      </trkpt>
      <trkpt lat="59.5925841" lon="17.5178946">
        <ele>33.8</ele>
        <time>2013-03-11T19:50:39Z</time>
      </trkpt>
      <trkpt lat="59.5925385" lon="17.5174887">
        <ele>35.4</ele>
        <time>2013-03-11T19:50:43Z</time>
      </trkpt>
      <trkpt lat="59.5925395" lon="17.5173973">
        <ele>35.6</ele>
        <time>2013-03-11T19:50:44Z</time>
      </trkpt>
      <trkpt lat="59.5925455" lon="17.5173048">
        <ele>36</ele>
        <time>2013-03-11T19:50:45Z</time>
      </trkpt>
      <trkpt lat="59.5925524" lon="17.5171108">
        <ele>37</ele>
        <time>2013-03-11T19:50:47Z</time>
      </trkpt>
      <trkpt lat="59.5925939" lon="17.5167924">
        <ele>37.8</ele>
        <time>2013-03-11T19:50:50Z</time>
      </trkpt>
      <trkpt lat="59.5926021" lon="17.5166725">
        <ele>37.8</ele>
        <time>2013-03-11T19:50:51Z</time>
      </trkpt>
      <trkpt lat="59.5926693" lon="17.5163101">
        <ele>38</ele>
        <time>2013-03-11T19:50:54Z</time>
      </trkpt>
      <trkpt lat="59.5927605" lon="17.5160892">
        <ele>38.2</ele>
        <time>2013-03-11T19:50:56Z</time>
      </trkpt>
      <trkpt lat="59.5928069" lon="17.5159718">
        <ele>38.6</ele>
        <time>2013-03-11T19:50:57Z</time>
      </trkpt>
      <trkpt lat="59.5929362" lon="17.5155792">
        <ele>39.4</ele>
        <time>2013-03-11T19:51:00Z</time>
      </trkpt>
      <trkpt lat="59.5930181" lon="17.5153113">
        <ele>39.6</ele>
        <time>2013-03-11T19:51:02Z</time>
      </trkpt>
      <trkpt lat="59.5930636" lon="17.5151817">
        <ele>39.8</ele>
        <time>2013-03-11T19:51:03Z</time>
      </trkpt>
      <trkpt lat="59.5932062" lon="17.514811">
        <ele>39.6</ele>
        <time>2013-03-11T19:51:06Z</time>
      </trkpt>
      <trkpt lat="59.5933834" lon="17.5145771">
        <ele>39.8</ele>
        <time>2013-03-11T19:51:09Z</time>
      </trkpt>
      <trkpt lat="59.5934501" lon="17.5145329">
        <ele>39.4</ele>
        <time>2013-03-11T19:51:10Z</time>
      </trkpt>
      <trkpt lat="59.5935807" lon="17.5144552">
        <ele>39.2</ele>
        <time>2013-03-11T19:51:12Z</time>
      </trkpt>
      <trkpt lat="59.5936407" lon="17.5144365">
        <ele>38.6</ele>
        <time>2013-03-11T19:51:13Z</time>
      </trkpt>
      <trkpt lat="59.5938082" lon="17.5144458">
        <ele>37</ele>
        <time>2013-03-11T19:51:16Z</time>
      </trkpt>
      <trkpt lat="59.5939568" lon="17.5146851">
        <ele>34.2</ele>
        <time>2013-03-11T19:51:21Z</time>
      </trkpt>
      <trkpt lat="59.5939806" lon="17.5147413">
        <ele>34.2</ele>
        <time>2013-03-11T19:51:22Z</time>
      </trkpt>
      <trkpt lat="59.5940871" lon="17.5149864">
        <ele>34.8</ele>
        <time>2013-03-11T19:51:27Z</time>
      </trkpt>
      <trkpt lat="59.5942607" lon="17.515201">
        <ele>38.4</ele>
        <time>2013-03-11T19:51:33Z</time>
      </trkpt>
      <trkpt lat="59.594463" lon="17.515357">
        <ele>39.4</ele>
        <time>2013-03-11T19:51:39Z</time>
      </trkpt>
      <trkpt lat="59.5946619" lon="17.5155021">
        <ele>39.6</ele>
        <time>2013-03-11T19:51:44Z</time>
      </trkpt>
      <trkpt lat="59.5948344" lon="17.5155951">
        <ele>41.4</ele>
        <time>2013-03-11T19:51:48Z</time>
      </trkpt>
      <trkpt lat="59.5948805" lon="17.5156104">
        <ele>41.2</ele>
        <time>2013-03-11T19:51:49Z</time>
      </trkpt>
      <trkpt lat="59.5950151" lon="17.5156479">
        <ele>41.2</ele>
        <time>2013-03-11T19:51:52Z</time>
      </trkpt>
      <trkpt lat="59.5950604" lon="17.5156481">
        <ele>41.6</ele>
        <time>2013-03-11T19:51:53Z</time>
      </trkpt>
      <trkpt lat="59.5951084" lon="17.5156429">
        <ele>42.4</ele>
        <time>2013-03-11T19:51:54Z</time>
      </trkpt>
      <trkpt lat="59.5952461" lon="17.5156393">
        <ele>43.2</ele>
        <time>2013-03-11T19:51:57Z</time>
      </trkpt>
      <trkpt lat="59.5952927" lon="17.5156259">
        <ele>43.8</ele>
        <time>2013-03-11T19:51:58Z</time>
      </trkpt>
      <trkpt lat="59.5954351" lon="17.5154376">
        <ele>46.2</ele>
        <time>2013-03-11T19:52:02Z</time>
      </trkpt>
      <trkpt lat="59.5955667" lon="17.5151409">
        <ele>48.2</ele>
        <time>2013-03-11T19:52:07Z</time>
      </trkpt>
      <trkpt lat="59.5955968" lon="17.5150639">
        <ele>48.6</ele>
        <time>2013-03-11T19:52:08Z</time>
      </trkpt>
      <trkpt lat="59.5956694" lon="17.5148291">
        <ele>48.4</ele>
        <time>2013-03-11T19:52:11Z</time>
      </trkpt>
      <trkpt lat="59.5956946" lon="17.5147329">
        <ele>48.8</ele>
        <time>2013-03-11T19:52:12Z</time>
      </trkpt>
      <trkpt lat="59.5957541" lon="17.5144256">
        <ele>47.4</ele>
        <time>2013-03-11T19:52:15Z</time>
      </trkpt>
      <trkpt lat="59.5957776" lon="17.5142292">
        <ele>46.4</ele>
        <time>2013-03-11T19:52:17Z</time>
      </trkpt>
      <trkpt lat="59.5957792" lon="17.5140125">
        <ele>45</ele>
        <time>2013-03-11T19:52:19Z</time>
      </trkpt>
      <trkpt lat="59.5957848" lon="17.5137685">
        <ele>43.2</ele>
        <time>2013-03-11T19:52:21Z</time>
      </trkpt>
      <trkpt lat="59.5957862" lon="17.5136345">
        <ele>42.8</ele>
        <time>2013-03-11T19:52:22Z</time>
      </trkpt>
      <trkpt lat="59.5958061" lon="17.5131864">
        <ele>41.4</ele>
        <time>2013-03-11T19:52:25Z</time>
      </trkpt>
      <trkpt lat="59.5959354" lon="17.5127814">
        <ele>41</ele>
        <time>2013-03-11T19:52:28Z</time>
      </trkpt>
      <trkpt lat="59.5961552" lon="17.5126214">
        <ele>40.8</ele>
        <time>2013-03-11T19:52:31Z</time>
      </trkpt>
      <trkpt lat="59.5962303" lon="17.5125883">
        <ele>40.8</ele>
        <time>2013-03-11T19:52:32Z</time>
      </trkpt>
      <trkpt lat="59.5963774" lon="17.512565">
        <ele>41.2</ele>
        <time>2013-03-11T19:52:34Z</time>
      </trkpt>
      <trkpt lat="59.5965732" lon="17.5125213">
        <ele>40.4</ele>
        <time>2013-03-11T19:52:37Z</time>
      </trkpt>
      <trkpt lat="59.5967561" lon="17.5125095">
        <ele>39</ele>
        <time>2013-03-11T19:52:40Z</time>
      </trkpt>
      <trkpt lat="59.5969777" lon="17.5124494">
        <ele>37.8</ele>
        <time>2013-03-11T19:52:44Z</time>
      </trkpt>
      <trkpt lat="59.597203" lon="17.5123774">
        <ele>35.4</ele>
        <time>2013-03-11T19:52:48Z</time>
      </trkpt>
      <trkpt lat="59.5974238" lon="17.5122795">
        <ele>34.8</ele>
        <time>2013-03-11T19:52:52Z</time>
      </trkpt>
      <trkpt lat="59.5976294" lon="17.5121753">
        <ele>34.8</ele>
        <time>2013-03-11T19:52:56Z</time>
      </trkpt>
      <trkpt lat="59.5976757" lon="17.5121423">
        <ele>34.6</ele>
        <time>2013-03-11T19:52:57Z</time>
      </trkpt>
      <trkpt lat="59.5978309" lon="17.5119998">
        <ele>33.4</ele>
        <time>2013-03-11T19:53:00Z</time>
      </trkpt>
      <trkpt lat="59.5979421" lon="17.5118814">
        <ele>33</ele>
        <time>2013-03-11T19:53:02Z</time>
      </trkpt>
      <trkpt lat="59.5980029" lon="17.5118164">
        <ele>32.4</ele>
        <time>2013-03-11T19:53:03Z</time>
      </trkpt>
      <trkpt lat="59.5981662" lon="17.5115893">
        <ele>31.6</ele>
        <time>2013-03-11T19:53:06Z</time>
      </trkpt>
      <trkpt lat="59.5983136" lon="17.5113485">
        <ele>30.6</ele>
        <time>2013-03-11T19:53:09Z</time>
      </trkpt>
      <trkpt lat="59.5984965" lon="17.5111593">
        <ele>31.2</ele>
        <time>2013-03-11T19:53:12Z</time>
      </trkpt>
      <trkpt lat="59.598685" lon="17.51105">
        <ele>33</ele>
        <time>2013-03-11T19:53:15Z</time>
      </trkpt>
      <trkpt lat="59.5988614" lon="17.5109216">
        <ele>33.4</ele>
        <time>2013-03-11T19:53:18Z</time>
      </trkpt>
      <trkpt lat="59.5990494" lon="17.5108201">
        <ele>33.2</ele>
        <time>2013-03-11T19:53:21Z</time>
      </trkpt>
      <trkpt lat="59.5991772" lon="17.5107797">
        <ele>32.6</ele>
        <time>2013-03-11T19:53:23Z</time>
      </trkpt>
      <trkpt lat="59.5992451" lon="17.5108015">
        <ele>32.2</ele>
        <time>2013-03-11T19:53:24Z</time>
      </trkpt>
      <trkpt lat="59.5994184" lon="17.5109374">
        <ele>30.4</ele>
        <time>2013-03-11T19:53:27Z</time>
      </trkpt>
      <trkpt lat="59.5995181" lon="17.5112289">
        <ele>29</ele>
        <time>2013-03-11T19:53:30Z</time>
      </trkpt>
      <trkpt lat="59.5995394" lon="17.5114407">
        <ele>28.2</ele>
        <time>2013-03-11T19:53:32Z</time>
      </trkpt>
      <trkpt lat="59.5995393" lon="17.5116196">
        <ele>28</ele>
        <time>2013-03-11T19:53:34Z</time>
      </trkpt>
      <trkpt lat="59.5995281" lon="17.5117955">
        <ele>28.6</ele>
        <time>2013-03-11T19:53:36Z</time>
      </trkpt>
      <trkpt lat="59.5994803" lon="17.5119573">
        <ele>28.6</ele>
        <time>2013-03-11T19:53:38Z</time>
      </trkpt>
      <trkpt lat="59.5994123" lon="17.5121213">
        <ele>29.2</ele>
        <time>2013-03-11T19:53:40Z</time>
      </trkpt>
      <trkpt lat="59.5993348" lon="17.5122265">
        <ele>30.4</ele>
        <time>2013-03-11T19:53:42Z</time>
      </trkpt>
      <trkpt lat="59.5992309" lon="17.5123586">
        <ele>31.8</ele>
        <time>2013-03-11T19:53:45Z</time>
      </trkpt>
      <trkpt lat="59.5991813" lon="17.5124803">
        <ele>31.8</ele>
        <time>2013-03-11T19:53:47Z</time>
      </trkpt>
      <trkpt lat="59.5991849" lon="17.5129208">
        <ele>34.8</ele>
        <time>2013-03-11T19:53:52Z</time>
      </trkpt>
      <trkpt lat="59.5991563" lon="17.51335">
        <ele>34.2</ele>
        <time>2013-03-11T19:53:56Z</time>
      </trkpt>
      <trkpt lat="59.5990929" lon="17.5135097">
        <ele>33.6</ele>
        <time>2013-03-11T19:53:58Z</time>
      </trkpt>
      <trkpt lat="59.5990631" lon="17.513564">
        <ele>33.4</ele>
        <time>2013-03-11T19:53:59Z</time>
      </trkpt>
      <trkpt lat="59.5989835" lon="17.5136658">
        <ele>33.8</ele>
        <time>2013-03-11T19:54:01Z</time>
      </trkpt>
      <trkpt lat="59.5988592" lon="17.5137989">
        <ele>33.2</ele>
        <time>2013-03-11T19:54:04Z</time>
      </trkpt>
      <trkpt lat="59.5987852" lon="17.5138527">
        <ele>33.8</ele>
        <time>2013-03-11T19:54:06Z</time>
      </trkpt>
      <trkpt lat="59.5986381" lon="17.513867">
        <ele>35.2</ele>
        <time>2013-03-11T19:54:10Z</time>
      </trkpt>
      <trkpt lat="59.5985804" lon="17.5138458">
        <ele>35.8</ele>
        <time>2013-03-11T19:54:12Z</time>
      </trkpt>
      <trkpt lat="59.5983754" lon="17.5138268">
        <ele>36.8</ele>
        <time>2013-03-11T19:54:18Z</time>
      </trkpt>
      <trkpt lat="59.5981649" lon="17.5138547">
        <ele>37.6</ele>
        <time>2013-03-11T19:54:24Z</time>
      </trkpt>
      <trkpt lat="59.5979712" lon="17.5139721">
        <ele>39.6</ele>
        <time>2013-03-11T19:54:29Z</time>
      </trkpt>
      <trkpt lat="59.597817" lon="17.5141662">
        <ele>41.6</ele>
        <time>2013-03-11T19:54:33Z</time>
      </trkpt>
      <trkpt lat="59.5977128" lon="17.5143582">
        <ele>41.8</ele>
        <time>2013-03-11T19:54:36Z</time>
      </trkpt>
      <trkpt lat="59.597675" lon="17.5144115">
        <ele>41.8</ele>
        <time>2013-03-11T19:54:37Z</time>
      </trkpt>
      <trkpt lat="59.5974973" lon="17.5145333">
        <ele>39.6</ele>
        <time>2013-03-11T19:54:42Z</time>
      </trkpt>
      <trkpt lat="59.5974648" lon="17.5145436">
        <ele>39</ele>
        <time>2013-03-11T19:54:43Z</time>
      </trkpt>
      <trkpt lat="59.5973162" lon="17.5145964">
        <ele>38.4</ele>
        <time>2013-03-11T19:54:47Z</time>
      </trkpt>
      <trkpt lat="59.5971202" lon="17.5146634">
        <ele>37</ele>
        <time>2013-03-11T19:54:52Z</time>
      </trkpt>
      <trkpt lat="59.596969" lon="17.514708">
        <ele>38.4</ele>
        <time>2013-03-11T19:54:55Z</time>
      </trkpt>
      <trkpt lat="59.5969299" lon="17.5147415">
        <ele>38.4</ele>
        <time>2013-03-11T19:54:56Z</time>
      </trkpt>
      <trkpt lat="59.5968098" lon="17.514869">
        <ele>39.8</ele>
        <time>2013-03-11T19:54:59Z</time>
      </trkpt>
      <trkpt lat="59.5967702" lon="17.5149142">
        <ele>40.4</ele>
        <time>2013-03-11T19:55:00Z</time>
      </trkpt>
      <trkpt lat="59.5966028" lon="17.515087">
        <ele>40.2</ele>
        <time>2013-03-11T19:55:05Z</time>
      </trkpt>
      <trkpt lat="59.5964274" lon="17.5152711">
        <ele>40.6</ele>
        <time>2013-03-11T19:55:10Z</time>
      </trkpt>
      <trkpt lat="59.596257" lon="17.5154507">
        <ele>41</ele>
        <time>2013-03-11T19:55:15Z</time>
      </trkpt>
      <trkpt lat="59.5960939" lon="17.5156569">
        <ele>42</ele>
        <time>2013-03-11T19:55:20Z</time>
      </trkpt>
      <trkpt lat="59.5959237" lon="17.5158631">
        <ele>42.4</ele>
        <time>2013-03-11T19:55:25Z</time>
      </trkpt>
      <trkpt lat="59.5957858" lon="17.5161634">
        <ele>44.6</ele>
        <time>2013-03-11T19:55:30Z</time>
      </trkpt>
      <trkpt lat="59.5957666" lon="17.5162298">
        <ele>45</ele>
        <time>2013-03-11T19:55:31Z</time>
      </trkpt>
      <trkpt lat="59.5957298" lon="17.5164608">
        <ele>45.6</ele>
        <time>2013-03-11T19:55:34Z</time>
      </trkpt>
      <trkpt lat="59.5957206" lon="17.5165406">
        <ele>45.8</ele>
        <time>2013-03-11T19:55:35Z</time>
      </trkpt>
      <trkpt lat="59.595709" lon="17.5166183">
        <ele>46.2</ele>
        <time>2013-03-11T19:55:36Z</time>
      </trkpt>
      <trkpt lat="59.5956605" lon="17.516854">
        <ele>46.6</ele>
        <time>2013-03-11T19:55:39Z</time>
      </trkpt>
      <trkpt lat="59.5956318" lon="17.5169382">
        <ele>46.4</ele>
        <time>2013-03-11T19:55:40Z</time>
      </trkpt>
      <trkpt lat="59.5955124" lon="17.5172161">
        <ele>46.6</ele>
        <time>2013-03-11T19:55:43Z</time>
      </trkpt>
      <trkpt lat="59.5953109" lon="17.517443">
        <ele>46.4</ele>
        <time>2013-03-11T19:55:46Z</time>
      </trkpt>
      <trkpt lat="59.5951476" lon="17.5174979">
        <ele>46</ele>
        <time>2013-03-11T19:55:48Z</time>
      </trkpt>
      <trkpt lat="59.5950654" lon="17.5175175">
        <ele>45.4</ele>
        <time>2013-03-11T19:55:49Z</time>
      </trkpt>
      <trkpt lat="59.594831" lon="17.5175833">
        <ele>44.6</ele>
        <time>2013-03-11T19:55:52Z</time>
      </trkpt>
      <trkpt lat="59.5946123" lon="17.5176342">
        <ele>42.8</ele>
        <time>2013-03-11T19:55:55Z</time>
      </trkpt>
      <trkpt lat="59.5944219" lon="17.5176873">
        <ele>42</ele>
        <time>2013-03-11T19:55:58Z</time>
      </trkpt>
      <trkpt lat="59.5941966" lon="17.5178137">
        <ele>41.8</ele>
        <time>2013-03-11T19:56:02Z</time>
      </trkpt>
      <trkpt lat="59.5941519" lon="17.5178562">
        <ele>41.4</ele>
        <time>2013-03-11T19:56:03Z</time>
      </trkpt>
      <trkpt lat="59.5940032" lon="17.5179324">
        <ele>39.4</ele>
        <time>2013-03-11T19:56:06Z</time>
      </trkpt>
      <trkpt lat="59.5938049" lon="17.5180126">
        <ele>36.8</ele>
        <time>2013-03-11T19:56:10Z</time>
      </trkpt>
      <trkpt lat="59.5935875" lon="17.5181168">
        <ele>34.6</ele>
        <time>2013-03-11T19:56:14Z</time>
      </trkpt>
      <trkpt lat="59.593403" lon="17.5183453">
        <ele>32</ele>
        <time>2013-03-11T19:56:18Z</time>
      </trkpt>
      <trkpt lat="59.5932247" lon="17.5185413">
        <ele>29.8</ele>
        <time>2013-03-11T19:56:22Z</time>
      </trkpt>
      <trkpt lat="59.5930324" lon="17.5185734">
        <ele>26.4</ele>
        <time>2013-03-11T19:56:26Z</time>
      </trkpt>
      <trkpt lat="59.5928553" lon="17.518319">
        <ele>26.2</ele>
        <time>2013-03-11T19:56:30Z</time>
      </trkpt>
      <trkpt lat="59.5928164" lon="17.5182462">
        <ele>27.4</ele>
        <time>2013-03-11T19:56:31Z</time>
      </trkpt>
      <trkpt lat="59.592699" lon="17.5180625">
        <ele>27.8</ele>
        <time>2013-03-11T19:56:34Z</time>
      </trkpt>
      <trkpt lat="59.5925771" lon="17.5177439">
        <ele>31.4</ele>
        <time>2013-03-11T19:56:38Z</time>
      </trkpt>
      <trkpt lat="59.5925483" lon="17.5173221">
        <ele>35.4</ele>
        <time>2013-03-11T19:56:43Z</time>
      </trkpt>
      <trkpt lat="59.5925561" lon="17.5171456">
        <ele>36.4</ele>
        <time>2013-03-11T19:56:45Z</time>
      </trkpt>
      <trkpt lat="59.5925672" lon="17.5169606">
        <ele>37.4</ele>
        <time>2013-03-11T19:56:47Z</time>
      </trkpt>
      <trkpt lat="59.5926036" lon="17.5166197">
        <ele>38.6</ele>
        <time>2013-03-11T19:56:50Z</time>
      </trkpt>
      <trkpt lat="59.5926286" lon="17.5164861">
        <ele>38.8</ele>
        <time>2013-03-11T19:56:51Z</time>
      </trkpt>
      <trkpt lat="59.5927512" lon="17.5161148">
        <ele>39.2</ele>
        <time>2013-03-11T19:56:54Z</time>
      </trkpt>
      <trkpt lat="59.5927995" lon="17.5159919">
        <ele>39.8</ele>
        <time>2013-03-11T19:56:55Z</time>
      </trkpt>
      <trkpt lat="59.5928885" lon="17.5157247">
        <ele>40.2</ele>
        <time>2013-03-11T19:56:57Z</time>
      </trkpt>
      <trkpt lat="59.5930238" lon="17.5153">
        <ele>40.6</ele>
        <time>2013-03-11T19:57:00Z</time>
      </trkpt>
      <trkpt lat="59.5931699" lon="17.5149025">
        <ele>39.8</ele>
        <time>2013-03-11T19:57:03Z</time>
      </trkpt>
      <trkpt lat="59.5932253" lon="17.514788">
        <ele>39.8</ele>
        <time>2013-03-11T19:57:04Z</time>
      </trkpt>
      <trkpt lat="59.5933522" lon="17.5146224">
        <ele>39.6</ele>
        <time>2013-03-11T19:57:06Z</time>
      </trkpt>
      <trkpt lat="59.5934858" lon="17.5145479">
        <ele>39</ele>
        <time>2013-03-11T19:57:08Z</time>
      </trkpt>
      <trkpt lat="59.5935521" lon="17.5145248">
        <ele>38.4</ele>
        <time>2013-03-11T19:57:09Z</time>
      </trkpt>
      <trkpt lat="59.5937293" lon="17.5144901">
        <ele>36.2</ele>
        <time>2013-03-11T19:57:12Z</time>
      </trkpt>
      <trkpt lat="59.5937739" lon="17.5145104">
        <ele>35.4</ele>
        <time>2013-03-11T19:57:13Z</time>
      </trkpt>
      <trkpt lat="59.5938511" lon="17.5145723">
        <ele>34.4</ele>
        <time>2013-03-11T19:57:15Z</time>
      </trkpt>
      <trkpt lat="59.5939449" lon="17.514723">
        <ele>32.6</ele>
        <time>2013-03-11T19:57:18Z</time>
      </trkpt>
      <trkpt lat="59.5940054" lon="17.5148228">
        <ele>33.4</ele>
        <time>2013-03-11T19:57:20Z</time>
      </trkpt>
      <trkpt lat="59.5940893" lon="17.5149653">
        <ele>34.2</ele>
        <time>2013-03-11T19:57:23Z</time>
      </trkpt>
      <trkpt lat="59.5942417" lon="17.5151725">
        <ele>35.4</ele>
        <time>2013-03-11T19:57:29Z</time>
      </trkpt>
      <trkpt lat="59.5944167" lon="17.5153164">
        <ele>36.8</ele>
        <time>2013-03-11T19:57:34Z</time>
      </trkpt>
      <trkpt lat="59.594608" lon="17.5154718">
        <ele>38</ele>
        <time>2013-03-11T19:57:39Z</time>
      </trkpt>
      <trkpt lat="59.5946964" lon="17.515517">
        <ele>38.6</ele>
        <time>2013-03-11T19:57:41Z</time>
      </trkpt>
      <trkpt lat="59.5948172" lon="17.515575">
        <ele>38.6</ele>
        <time>2013-03-11T19:57:44Z</time>
      </trkpt>
      <trkpt lat="59.5948596" lon="17.5155931">
        <ele>39</ele>
        <time>2013-03-11T19:57:45Z</time>
      </trkpt>
      <trkpt lat="59.5948941" lon="17.5156086">
        <ele>38.8</ele>
        <time>2013-03-11T19:57:46Z</time>
      </trkpt>
      <trkpt lat="59.5950129" lon="17.515631">
        <ele>39.6</ele>
        <time>2013-03-11T19:57:49Z</time>
      </trkpt>
      <trkpt lat="59.5952174" lon="17.5156398">
        <ele>40.6</ele>
        <time>2013-03-11T19:57:54Z</time>
      </trkpt>
      <trkpt lat="59.5953777" lon="17.5154774">
        <ele>42.4</ele>
        <time>2013-03-11T19:57:59Z</time>
      </trkpt>
      <trkpt lat="59.595518" lon="17.5151933">
        <ele>45.2</ele>
        <time>2013-03-11T19:58:04Z</time>
      </trkpt>
      <trkpt lat="59.5955802" lon="17.5150538">
        <ele>45.8</ele>
        <time>2013-03-11T19:58:06Z</time>
      </trkpt>
      <trkpt lat="59.5956325" lon="17.5148971">
        <ele>45.2</ele>
        <time>2013-03-11T19:58:08Z</time>
      </trkpt>
      <trkpt lat="59.5956593" lon="17.5147041">
        <ele>46</ele>
        <time>2013-03-11T19:58:10Z</time>
      </trkpt>
      <trkpt lat="59.5956803" lon="17.5146053">
        <ele>46.2</ele>
        <time>2013-03-11T19:58:11Z</time>
      </trkpt>
      <trkpt lat="59.5957041" lon="17.5145153">
        <ele>46.2</ele>
        <time>2013-03-11T19:58:12Z</time>
      </trkpt>
      <trkpt lat="59.5957195" lon="17.5144204">
        <ele>46.2</ele>
        <time>2013-03-11T19:58:13Z</time>
      </trkpt>
      <trkpt lat="59.5957434" lon="17.514138">
        <ele>45.6</ele>
        <time>2013-03-11T19:58:16Z</time>
      </trkpt>
      <trkpt lat="59.5957501" lon="17.5140296">
        <ele>45.8</ele>
        <time>2013-03-11T19:58:17Z</time>
      </trkpt>
      <trkpt lat="59.5957651" lon="17.5136947">
        <ele>44.8</ele>
        <time>2013-03-11T19:58:20Z</time>
      </trkpt>
      <trkpt lat="59.5957719" lon="17.513552">
        <ele>44.4</ele>
        <time>2013-03-11T19:58:21Z</time>
      </trkpt>
      <trkpt lat="59.5957926" lon="17.513249">
        <ele>42.6</ele>
        <time>2013-03-11T19:58:23Z</time>
      </trkpt>
      <trkpt lat="59.5959266" lon="17.5128442">
        <ele>40.8</ele>
        <time>2013-03-11T19:58:26Z</time>
      </trkpt>
      <trkpt lat="59.5961489" lon="17.5126579">
        <ele>39.8</ele>
        <time>2013-03-11T19:58:29Z</time>
      </trkpt>
      <trkpt lat="59.5963689" lon="17.5125861">
        <ele>39.2</ele>
        <time>2013-03-11T19:58:32Z</time>
      </trkpt>
      <trkpt lat="59.5964339" lon="17.5125795">
        <ele>38.8</ele>
        <time>2013-03-11T19:58:33Z</time>
      </trkpt>
      <trkpt lat="59.5965621" lon="17.512574">
        <ele>38.4</ele>
        <time>2013-03-11T19:58:35Z</time>
      </trkpt>
      <trkpt lat="59.5967862" lon="17.5125471">
        <ele>36.4</ele>
        <time>2013-03-11T19:58:39Z</time>
      </trkpt>
      <trkpt lat="59.5970078" lon="17.5124903">
        <ele>35</ele>
        <time>2013-03-11T19:58:43Z</time>
      </trkpt>
      <trkpt lat="59.5971042" lon="17.5124369">
        <ele>34</ele>
        <time>2013-03-11T19:58:45Z</time>
      </trkpt>
      <trkpt lat="59.5972099" lon="17.5123779">
        <ele>32.8</ele>
        <time>2013-03-11T19:58:47Z</time>
      </trkpt>
      <trkpt lat="59.5972617" lon="17.5123598">
        <ele>32.4</ele>
        <time>2013-03-11T19:58:48Z</time>
      </trkpt>
      <trkpt lat="59.5974208" lon="17.5123095">
        <ele>30.2</ele>
        <time>2013-03-11T19:58:51Z</time>
      </trkpt>
      <trkpt lat="59.5974703" lon="17.5122826">
        <ele>29.8</ele>
        <time>2013-03-11T19:58:52Z</time>
      </trkpt>
      <trkpt lat="59.5976254" lon="17.512184">
        <ele>28.4</ele>
        <time>2013-03-11T19:58:55Z</time>
      </trkpt>
      <trkpt lat="59.5978258" lon="17.5120568">
        <ele>26.2</ele>
        <time>2013-03-11T19:58:59Z</time>
      </trkpt>
      <trkpt lat="59.5978754" lon="17.5120122">
        <ele>25.4</ele>
        <time>2013-03-11T19:59:00Z</time>
      </trkpt>
      <trkpt lat="59.5980226" lon="17.5118338">
        <ele>22.6</ele>
        <time>2013-03-11T19:59:03Z</time>
      </trkpt>
      <trkpt lat="59.5981608" lon="17.5116045">
        <ele>20.6</ele>
        <time>2013-03-11T19:59:06Z</time>
      </trkpt>
      <trkpt lat="59.5983028" lon="17.5113697">
        <ele>18.2</ele>
        <time>2013-03-11T19:59:09Z</time>
      </trkpt>
      <trkpt lat="59.5984821" lon="17.5111717">
        <ele>16.6</ele>
        <time>2013-03-11T19:59:12Z</time>
      </trkpt>
      <trkpt lat="59.5986582" lon="17.5110819">
        <ele>15.6</ele>
        <time>2013-03-11T19:59:15Z</time>
      </trkpt>
      <trkpt lat="59.5988652" lon="17.5109605">
        <ele>16.4</ele>
        <time>2013-03-11T19:59:19Z</time>
      </trkpt>
      <trkpt lat="59.5990206" lon="17.5108993">
        <ele>14.6</ele>
        <time>2013-03-11T19:59:22Z</time>
      </trkpt>
      <trkpt lat="59.5990757" lon="17.5108881">
        <ele>14.2</ele>
        <time>2013-03-11T19:59:23Z</time>
      </trkpt>
      <trkpt lat="59.5991326" lon="17.5108887">
        <ele>14.4</ele>
        <time>2013-03-11T19:59:24Z</time>
      </trkpt>
      <trkpt lat="59.5992901" lon="17.5109813">
        <ele>14.4</ele>
        <time>2013-03-11T19:59:27Z</time>
      </trkpt>
      <trkpt lat="59.5993819" lon="17.5110864">
        <ele>13.8</ele>
        <time>2013-03-11T19:59:29Z</time>
      </trkpt>
      <trkpt lat="59.5994557" lon="17.5112567">
        <ele>13</ele>
        <time>2013-03-11T19:59:31Z</time>
      </trkpt>
      <trkpt lat="59.599485" lon="17.5113491">
        <ele>12.6</ele>
        <time>2013-03-11T19:59:32Z</time>
      </trkpt>
      <trkpt lat="59.5995192" lon="17.5115926">
        <ele>12.6</ele>
        <time>2013-03-11T19:59:35Z</time>
      </trkpt>
      <trkpt lat="59.5995254" lon="17.5116681">
        <ele>13.4</ele>
        <time>2013-03-11T19:59:36Z</time>
      </trkpt>
      <trkpt lat="59.5995315" lon="17.5118278">
        <ele>15</ele>
        <time>2013-03-11T19:59:38Z</time>
      </trkpt>
      <trkpt lat="59.5995061" lon="17.51198">
        <ele>18</ele>
        <time>2013-03-11T19:59:40Z</time>
      </trkpt>
      <trkpt lat="59.5994673" lon="17.5121292">
        <ele>19.8</ele>
        <time>2013-03-11T19:59:42Z</time>
      </trkpt>
      <trkpt lat="59.5993521" lon="17.5122956">
        <ele>22</ele>
        <time>2013-03-11T19:59:45Z</time>
      </trkpt>
      <trkpt lat="59.5992781" lon="17.5123696">
        <ele>23.8</ele>
        <time>2013-03-11T19:59:47Z</time>
      </trkpt>
      <trkpt lat="59.5991915" lon="17.5125025">
        <ele>27.6</ele>
        <time>2013-03-11T19:59:50Z</time>
      </trkpt>
      <trkpt lat="59.5991343" lon="17.5128626">
        <ele>34.8</ele>
        <time>2013-03-11T19:59:55Z</time>
      </trkpt>
      <trkpt lat="59.599126" lon="17.5132726">
        <ele>37.8</ele>
        <time>2013-03-11T19:59:59Z</time>
      </trkpt>
      <trkpt lat="59.5990766" lon="17.5135336">
        <ele>39.4</ele>
        <time>2013-03-11T20:00:02Z</time>
      </trkpt>
      <trkpt lat="59.5990484" lon="17.5135969">
        <ele>39.8</ele>
        <time>2013-03-11T20:00:03Z</time>
      </trkpt>
      <trkpt lat="59.5989126" lon="17.513812">
        <ele>38.6</ele>
        <time>2013-03-11T20:00:07Z</time>
      </trkpt>
      <trkpt lat="59.5988784" lon="17.5138427">
        <ele>38.4</ele>
        <time>2013-03-11T20:00:08Z</time>
      </trkpt>
      <trkpt lat="59.5988438" lon="17.5138691">
        <ele>39</ele>
        <time>2013-03-11T20:00:09Z</time>
      </trkpt>
      <trkpt lat="59.5987757" lon="17.5138977">
        <ele>39.6</ele>
        <time>2013-03-11T20:00:11Z</time>
      </trkpt>
      <trkpt lat="59.598694" lon="17.5139069">
        <ele>40</ele>
        <time>2013-03-11T20:00:14Z</time>
      </trkpt>
      <trkpt lat="59.5986099" lon="17.5138991">
        <ele>40.6</ele>
        <time>2013-03-11T20:00:17Z</time>
      </trkpt>
      <trkpt lat="59.5984965" lon="17.5138664">
        <ele>40.2</ele>
        <time>2013-03-11T20:00:20Z</time>
      </trkpt>
      <trkpt lat="59.5982944" lon="17.5138509">
        <ele>40.2</ele>
        <time>2013-03-11T20:00:25Z</time>
      </trkpt>
      <trkpt lat="59.5981079" lon="17.5138892">
        <ele>42</ele>
        <time>2013-03-11T20:00:30Z</time>
      </trkpt>
      <trkpt lat="59.5979035" lon="17.5140439">
        <ele>42</ele>
        <time>2013-03-11T20:00:37Z</time>
      </trkpt>
      <trkpt lat="59.5977521" lon="17.5143193">
        <ele>42</ele>
        <time>2013-03-11T20:00:41Z</time>
      </trkpt>
      <trkpt lat="59.5976693" lon="17.5144084">
        <ele>41.2</ele>
        <time>2013-03-11T20:00:43Z</time>
      </trkpt>
      <trkpt lat="59.5975895" lon="17.5144832">
        <ele>41.8</ele>
        <time>2013-03-11T20:00:45Z</time>
      </trkpt>
      <trkpt lat="59.5975227" lon="17.5145489">
        <ele>42.4</ele>
        <time>2013-03-11T20:00:47Z</time>
      </trkpt>
      <trkpt lat="59.5974481" lon="17.5145971">
        <ele>42.4</ele>
        <time>2013-03-11T20:00:49Z</time>
      </trkpt>
      <trkpt lat="59.597412" lon="17.5146093">
        <ele>42</ele>
        <time>2013-03-11T20:00:50Z</time>
      </trkpt>
      <trkpt lat="59.5972554" lon="17.5146859">
        <ele>43.4</ele>
        <time>2013-03-11T20:00:54Z</time>
      </trkpt>
      <trkpt lat="59.5972139" lon="17.5146976">
        <ele>44.2</ele>
        <time>2013-03-11T20:00:55Z</time>
      </trkpt>
      <trkpt lat="59.5970136" lon="17.5147271">
        <ele>45.2</ele>
        <time>2013-03-11T20:01:00Z</time>
      </trkpt>
      <trkpt lat="59.5968733" lon="17.5148327">
        <ele>45.6</ele>
        <time>2013-03-11T20:01:04Z</time>
      </trkpt>
      <trkpt lat="59.5968382" lon="17.5148722">
        <ele>45.6</ele>
        <time>2013-03-11T20:01:05Z</time>
      </trkpt>
      <trkpt lat="59.5966533" lon="17.5150675">
        <ele>46</ele>
        <time>2013-03-11T20:01:11Z</time>
      </trkpt>
      <trkpt lat="59.596481" lon="17.515226">
        <ele>45.4</ele>
        <time>2013-03-11T20:01:17Z</time>
      </trkpt>
      <trkpt lat="59.5963085" lon="17.5154149">
        <ele>45.8</ele>
        <time>2013-03-11T20:01:22Z</time>
      </trkpt>
      <trkpt lat="59.5961515" lon="17.515618">
        <ele>44.8</ele>
        <time>2013-03-11T20:01:27Z</time>
      </trkpt>
      <trkpt lat="59.5959618" lon="17.5158352">
        <ele>44.4</ele>
        <time>2013-03-11T20:01:32Z</time>
      </trkpt>
      <trkpt lat="59.5958277" lon="17.5160799">
        <ele>44.2</ele>
        <time>2013-03-11T20:01:36Z</time>
      </trkpt>
      <trkpt lat="59.5957869" lon="17.5161961">
        <ele>45</ele>
        <time>2013-03-11T20:01:38Z</time>
      </trkpt>
      <trkpt lat="59.5957396" lon="17.516421">
        <ele>45.2</ele>
        <time>2013-03-11T20:01:41Z</time>
      </trkpt>
      <trkpt lat="59.5956786" lon="17.516797">
        <ele>47.2</ele>
        <time>2013-03-11T20:01:46Z</time>
      </trkpt>
      <trkpt lat="59.5956267" lon="17.5169685">
        <ele>47.8</ele>
        <time>2013-03-11T20:01:48Z</time>
      </trkpt>
      <trkpt lat="59.5955641" lon="17.5171387">
        <ele>48</ele>
        <time>2013-03-11T20:01:50Z</time>
      </trkpt>
      <trkpt lat="59.5955196" lon="17.5172297">
        <ele>48.2</ele>
        <time>2013-03-11T20:01:51Z</time>
      </trkpt>
      <trkpt lat="59.5953984" lon="17.5173978">
        <ele>47.2</ele>
        <time>2013-03-11T20:01:53Z</time>
      </trkpt>
      <trkpt lat="59.5951637" lon="17.517507">
        <ele>44.8</ele>
        <time>2013-03-11T20:01:56Z</time>
      </trkpt>
      <trkpt lat="59.5949291" lon="17.5175719">
        <ele>44.4</ele>
        <time>2013-03-11T20:01:59Z</time>
      </trkpt>
      <trkpt lat="59.5947068" lon="17.5176153">
        <ele>43.8</ele>
        <time>2013-03-11T20:02:02Z</time>
      </trkpt>
      <trkpt lat="59.5944913" lon="17.5176668">
        <ele>43.2</ele>
        <time>2013-03-11T20:02:05Z</time>
      </trkpt>
      <trkpt lat="59.5942992" lon="17.5177608">
        <ele>42.4</ele>
        <time>2013-03-11T20:02:08Z</time>
      </trkpt>
      <trkpt lat="59.594137" lon="17.5179056">
        <ele>41</ele>
        <time>2013-03-11T20:02:11Z</time>
      </trkpt>
      <trkpt lat="59.5940883" lon="17.5179376">
        <ele>40.4</ele>
        <time>2013-03-11T20:02:12Z</time>
      </trkpt>
      <trkpt lat="59.5939017" lon="17.5180346">
        <ele>37.8</ele>
        <time>2013-03-11T20:02:16Z</time>
      </trkpt>
      <trkpt lat="59.5937029" lon="17.5180978">
        <ele>35.6</ele>
        <time>2013-03-11T20:02:20Z</time>
      </trkpt>
      <trkpt lat="59.5934951" lon="17.5182768">
        <ele>35.4</ele>
        <time>2013-03-11T20:02:24Z</time>
      </trkpt>
      <trkpt lat="59.5933133" lon="17.5185023">
        <ele>35</ele>
        <time>2013-03-11T20:02:28Z</time>
      </trkpt>
      <trkpt lat="59.5932383" lon="17.5185716">
        <ele>34.8</ele>
        <time>2013-03-11T20:02:30Z</time>
      </trkpt>
      <trkpt lat="59.5931051" lon="17.5186137">
        <ele>33.6</ele>
        <time>2013-03-11T20:02:33Z</time>
      </trkpt>
      <trkpt lat="59.5928993" lon="17.5184669">
        <ele>33.4</ele>
        <time>2013-03-11T20:02:37Z</time>
      </trkpt>
      <trkpt lat="59.5927439" lon="17.5183059">
        <ele>33.4</ele>
        <time>2013-03-11T20:02:40Z</time>
      </trkpt>
      <trkpt lat="59.5926921" lon="17.5182433">
        <ele>33.8</ele>
        <time>2013-03-11T20:02:41Z</time>
      </trkpt>
      <trkpt lat="59.5925981" lon="17.5180998">
        <ele>34.4</ele>
        <time>2013-03-11T20:02:43Z</time>
      </trkpt>
      <trkpt lat="59.592542" lon="17.5179311">
        <ele>34.4</ele>
        <time>2013-03-11T20:02:45Z</time>
      </trkpt>
      <trkpt lat="59.592527" lon="17.5175486">
        <ele>36.4</ele>
        <time>2013-03-11T20:02:49Z</time>
      </trkpt>
      <trkpt lat="59.592536" lon="17.5174513">
        <ele>36.4</ele>
        <time>2013-03-11T20:02:50Z</time>
      </trkpt>
      <trkpt lat="59.592569" lon="17.5171701">
        <ele>35.8</ele>
        <time>2013-03-11T20:02:53Z</time>
      </trkpt>
      <trkpt lat="59.5925798" lon="17.5170721">
        <ele>35.8</ele>
        <time>2013-03-11T20:02:54Z</time>
      </trkpt>
      <trkpt lat="59.5926022" lon="17.5167245">
        <ele>36</ele>
        <time>2013-03-11T20:02:57Z</time>
      </trkpt>
      <trkpt lat="59.5926187" lon="17.5164762">
        <ele>36</ele>
        <time>2013-03-11T20:02:59Z</time>
      </trkpt>
      <trkpt lat="59.5926497" lon="17.5163495">
        <ele>36</ele>
        <time>2013-03-11T20:03:00Z</time>
      </trkpt>
      <trkpt lat="59.5927866" lon="17.5160268">
        <ele>35.4</ele>
        <time>2013-03-11T20:03:03Z</time>
      </trkpt>
      <trkpt lat="59.5929192" lon="17.5156689">
        <ele>33.6</ele>
        <time>2013-03-11T20:03:06Z</time>
      </trkpt>
      <trkpt lat="59.5930507" lon="17.5152885">
        <ele>32.6</ele>
        <time>2013-03-11T20:03:09Z</time>
      </trkpt>
      <trkpt lat="59.5931819" lon="17.5149261">
        <ele>31.6</ele>
        <time>2013-03-11T20:03:12Z</time>
      </trkpt>
      <trkpt lat="59.5932325" lon="17.5148227">
        <ele>31.4</ele>
        <time>2013-03-11T20:03:13Z</time>
      </trkpt>
      <trkpt lat="59.5933531" lon="17.514673">
        <ele>31.6</ele>
        <time>2013-03-11T20:03:15Z</time>
      </trkpt>
      <trkpt lat="59.5935387" lon="17.5145443">
        <ele>30.2</ele>
        <time>2013-03-11T20:03:18Z</time>
      </trkpt>
      <trkpt lat="59.5937369" lon="17.5145058">
        <ele>28.4</ele>
        <time>2013-03-11T20:03:22Z</time>
      </trkpt>
      <trkpt lat="59.5939281" lon="17.5146976">
        <ele>29</ele>
        <time>2013-03-11T20:03:27Z</time>
      </trkpt>
      <trkpt lat="59.5939604" lon="17.5147478">
        <ele>30</ele>
        <time>2013-03-11T20:03:28Z</time>
      </trkpt>
      <trkpt lat="59.5940624" lon="17.5149338">
        <ele>32.2</ele>
        <time>2013-03-11T20:03:32Z</time>
      </trkpt>
      <trkpt lat="59.5940878" lon="17.5149787">
        <ele>32.2</ele>
        <time>2013-03-11T20:03:33Z</time>
      </trkpt>
      <trkpt lat="59.5942644" lon="17.5151892">
        <ele>36.4</ele>
        <time>2013-03-11T20:03:39Z</time>
      </trkpt>
      <trkpt lat="59.5944357" lon="17.5153227">
        <ele>40</ele>
        <time>2013-03-11T20:03:44Z</time>
      </trkpt>
      <trkpt lat="59.5946369" lon="17.5154714">
        <ele>40</ele>
        <time>2013-03-11T20:03:50Z</time>
      </trkpt>
      <trkpt lat="59.5948472" lon="17.5155596">
        <ele>39.2</ele>
        <time>2013-03-11T20:03:55Z</time>
      </trkpt>
      <trkpt lat="59.59497" lon="17.5155987">
        <ele>40.4</ele>
        <time>2013-03-11T20:03:58Z</time>
      </trkpt>
      <trkpt lat="59.5950352" lon="17.5156201">
        <ele>40.8</ele>
        <time>2013-03-11T20:04:00Z</time>
      </trkpt>
      <trkpt lat="59.5950725" lon="17.5156222">
        <ele>40.6</ele>
        <time>2013-03-11T20:04:01Z</time>
      </trkpt>
      <trkpt lat="59.5952419" lon="17.5155972">
        <ele>41</ele>
        <time>2013-03-11T20:04:05Z</time>
      </trkpt>
      <trkpt lat="59.5954181" lon="17.515385">
        <ele>42.4</ele>
        <time>2013-03-11T20:04:11Z</time>
      </trkpt>
      <trkpt lat="59.5955622" lon="17.5150827">
        <ele>45.2</ele>
        <time>2013-03-11T20:04:16Z</time>
      </trkpt>
      <trkpt lat="59.5956162" lon="17.5147457">
        <ele>46.4</ele>
        <time>2013-03-11T20:04:20Z</time>
      </trkpt>
      <trkpt lat="59.5956377" lon="17.5145779">
        <ele>46</ele>
        <time>2013-03-11T20:04:22Z</time>
      </trkpt>
      <trkpt lat="59.5956769" lon="17.5144085">
        <ele>44.4</ele>
        <time>2013-03-11T20:04:24Z</time>
      </trkpt>
      <trkpt lat="59.5957318" lon="17.5140337">
        <ele>42.8</ele>
        <time>2013-03-11T20:04:28Z</time>
      </trkpt>
      <trkpt lat="59.5957515" lon="17.5136749">
        <ele>40.6</ele>
        <time>2013-03-11T20:04:31Z</time>
      </trkpt>
      <trkpt lat="59.595761" lon="17.5135311">
        <ele>39.8</ele>
        <time>2013-03-11T20:04:32Z</time>
      </trkpt>
      <trkpt lat="59.595777" lon="17.5133754">
        <ele>39.4</ele>
        <time>2013-03-11T20:04:33Z</time>
      </trkpt>
      <trkpt lat="59.5958008" lon="17.5132205">
        <ele>38.4</ele>
        <time>2013-03-11T20:04:34Z</time>
      </trkpt>
      <trkpt lat="59.5959631" lon="17.5128477">
        <ele>36.6</ele>
        <time>2013-03-11T20:04:37Z</time>
      </trkpt>
      <trkpt lat="59.5961966" lon="17.5126965">
        <ele>36</ele>
        <time>2013-03-11T20:04:40Z</time>
      </trkpt>
      <trkpt lat="59.5964138" lon="17.5126173">
        <ele>36.4</ele>
        <time>2013-03-11T20:04:43Z</time>
      </trkpt>
      <trkpt lat="59.5965989" lon="17.5125866">
        <ele>37.2</ele>
        <time>2013-03-11T20:04:46Z</time>
      </trkpt>
      <trkpt lat="59.5967118" lon="17.5125611">
        <ele>37.2</ele>
        <time>2013-03-11T20:04:48Z</time>
      </trkpt>
      <trkpt lat="59.596824" lon="17.5125255">
        <ele>36.8</ele>
        <time>2013-03-11T20:04:50Z</time>
      </trkpt>
      <trkpt lat="59.5968812" lon="17.5125043">
        <ele>36.8</ele>
        <time>2013-03-11T20:04:51Z</time>
      </trkpt>
      <trkpt lat="59.5970374" lon="17.5124225">
        <ele>35.4</ele>
        <time>2013-03-11T20:04:54Z</time>
      </trkpt>
      <trkpt lat="59.5972666" lon="17.5123068">
        <ele>34.4</ele>
        <time>2013-03-11T20:04:58Z</time>
      </trkpt>
      <trkpt lat="59.5974704" lon="17.5122537">
        <ele>32.6</ele>
        <time>2013-03-11T20:05:02Z</time>
      </trkpt>
      <trkpt lat="59.5976564" lon="17.5121088">
        <ele>31.2</ele>
        <time>2013-03-11T20:05:06Z</time>
      </trkpt>
      <trkpt lat="59.5978729" lon="17.5119475">
        <ele>28.8</ele>
        <time>2013-03-11T20:05:10Z</time>
      </trkpt>
      <trkpt lat="59.5979832" lon="17.51182">
        <ele>28.2</ele>
        <time>2013-03-11T20:05:12Z</time>
      </trkpt>
      <trkpt lat="59.5980309" lon="17.5117522">
        <ele>27.8</ele>
        <time>2013-03-11T20:05:13Z</time>
      </trkpt>
      <trkpt lat="59.5981792" lon="17.5114971">
        <ele>26.8</ele>
        <time>2013-03-11T20:05:16Z</time>
      </trkpt>
      <trkpt lat="59.5983578" lon="17.5112712">
        <ele>28</ele>
        <time>2013-03-11T20:05:19Z</time>
      </trkpt>
      <trkpt lat="59.5985504" lon="17.5111217">
        <ele>28.2</ele>
        <time>2013-03-11T20:05:22Z</time>
      </trkpt>
      <trkpt lat="59.5987767" lon="17.5110079">
        <ele>27.8</ele>
        <time>2013-03-11T20:05:26Z</time>
      </trkpt>
      <trkpt lat="59.5988272" lon="17.5109855">
        <ele>27.4</ele>
        <time>2013-03-11T20:05:27Z</time>
      </trkpt>
      <trkpt lat="59.5989856" lon="17.5109242">
        <ele>26.2</ele>
        <time>2013-03-11T20:05:30Z</time>
      </trkpt>
      <trkpt lat="59.5991589" lon="17.5108938">
        <ele>24.6</ele>
        <time>2013-03-11T20:05:33Z</time>
      </trkpt>
      <trkpt lat="59.5992156" lon="17.5109074">
        <ele>23.6</ele>
        <time>2013-03-11T20:05:34Z</time>
      </trkpt>
      <trkpt lat="59.5994175" lon="17.5110837">
        <ele>22.4</ele>
        <time>2013-03-11T20:05:38Z</time>
      </trkpt>
      <trkpt lat="59.5994964" lon="17.5114235">
        <ele>20.6</ele>
        <time>2013-03-11T20:05:42Z</time>
      </trkpt>
      <trkpt lat="59.5995025" lon="17.5115005">
        <ele>21.2</ele>
        <time>2013-03-11T20:05:43Z</time>
      </trkpt>
      <trkpt lat="59.5994713" lon="17.5117935">
        <ele>22</ele>
        <time>2013-03-11T20:05:47Z</time>
      </trkpt>
      <trkpt lat="59.599431" lon="17.5119479">
        <ele>23</ele>
        <time>2013-03-11T20:05:49Z</time>
      </trkpt>
      <trkpt lat="59.5993734" lon="17.5121018">
        <ele>23.6</ele>
        <time>2013-03-11T20:05:51Z</time>
      </trkpt>
      <trkpt lat="59.5991895" lon="17.5123248">
        <ele>24.8</ele>
        <time>2013-03-11T20:05:56Z</time>
      </trkpt>
      <trkpt lat="59.5991274" lon="17.5127187">
        <ele>27</ele>
        <time>2013-03-11T20:06:01Z</time>
      </trkpt>
      <trkpt lat="59.5991353" lon="17.5128089">
        <ele>28.2</ele>
        <time>2013-03-11T20:06:02Z</time>
      </trkpt>
      <trkpt lat="59.5991409" lon="17.5129081">
        <ele>29</ele>
        <time>2013-03-11T20:06:03Z</time>
      </trkpt>
      <trkpt lat="59.5991446" lon="17.513089">
        <ele>29.6</ele>
        <time>2013-03-11T20:06:05Z</time>
      </trkpt>
      <trkpt lat="59.5990789" lon="17.5134377">
        <ele>31.6</ele>
        <time>2013-03-11T20:06:09Z</time>
      </trkpt>
      <trkpt lat="59.5990253" lon="17.5135727">
        <ele>32.6</ele>
        <time>2013-03-11T20:06:11Z</time>
      </trkpt>
      <trkpt lat="59.5989255" lon="17.5137413">
        <ele>33</ele>
        <time>2013-03-11T20:06:14Z</time>
      </trkpt>
      <trkpt lat="59.5988968" lon="17.5137833">
        <ele>33.4</ele>
        <time>2013-03-11T20:06:15Z</time>
      </trkpt>
      <trkpt lat="59.5987297" lon="17.5138695">
        <ele>35.2</ele>
        <time>2013-03-11T20:06:20Z</time>
      </trkpt>
      <trkpt lat="59.5987029" lon="17.5138671">
        <ele>35.4</ele>
        <time>2013-03-11T20:06:21Z</time>
      </trkpt>
      <trkpt lat="59.5985498" lon="17.5138381">
        <ele>36.6</ele>
        <time>2013-03-11T20:06:26Z</time>
      </trkpt>
      <trkpt lat="59.5983654" lon="17.5137919">
        <ele>39</ele>
        <time>2013-03-11T20:06:31Z</time>
      </trkpt>
      <trkpt lat="59.5981682" lon="17.513868">
        <ele>39.2</ele>
        <time>2013-03-11T20:06:37Z</time>
      </trkpt>
      <trkpt lat="59.5980022" lon="17.5139928">
        <ele>40.2</ele>
        <time>2013-03-11T20:06:42Z</time>
      </trkpt>
      <trkpt lat="59.597838" lon="17.5141629">
        <ele>41.2</ele>
        <time>2013-03-11T20:06:46Z</time>
      </trkpt>
      <trkpt lat="59.5976816" lon="17.5144105">
        <ele>42.4</ele>
        <time>2013-03-11T20:06:51Z</time>
      </trkpt>
      <trkpt lat="59.5975506" lon="17.5145183">
        <ele>43.4</ele>
        <time>2013-03-11T20:06:54Z</time>
      </trkpt>
      <trkpt lat="59.5974795" lon="17.5145689">
        <ele>44.4</ele>
        <time>2013-03-11T20:06:56Z</time>
      </trkpt>
      <trkpt lat="59.5973619" lon="17.5146198">
        <ele>45</ele>
        <time>2013-03-11T20:06:59Z</time>
      </trkpt>
      <trkpt lat="59.5972824" lon="17.5146565">
        <ele>45.4</ele>
        <time>2013-03-11T20:07:01Z</time>
      </trkpt>
      <trkpt lat="59.5972439" lon="17.5146633">
        <ele>44.8</ele>
        <time>2013-03-11T20:07:02Z</time>
      </trkpt>
      <trkpt lat="59.5970957" lon="17.5147113">
        <ele>44</ele>
        <time>2013-03-11T20:07:06Z</time>
      </trkpt>
      <trkpt lat="59.5969144" lon="17.5147882">
        <ele>43.2</ele>
        <time>2013-03-11T20:07:11Z</time>
      </trkpt>
      <trkpt lat="59.596746" lon="17.5149586">
        <ele>46.8</ele>
        <time>2013-03-11T20:07:16Z</time>
      </trkpt>
      <trkpt lat="59.5965701" lon="17.5151083">
        <ele>49.2</ele>
        <time>2013-03-11T20:07:22Z</time>
      </trkpt>
      <trkpt lat="59.5964039" lon="17.5152963">
        <ele>51</ele>
        <time>2013-03-11T20:07:27Z</time>
      </trkpt>
      <trkpt lat="59.5962106" lon="17.5154788">
        <ele>51.8</ele>
        <time>2013-03-11T20:07:33Z</time>
      </trkpt>
      <trkpt lat="59.5960272" lon="17.5156922">
        <ele>48.6</ele>
        <time>2013-03-11T20:07:39Z</time>
      </trkpt>
      <trkpt lat="59.5958931" lon="17.5159271">
        <ele>47.4</ele>
        <time>2013-03-11T20:07:43Z</time>
      </trkpt>
      <trkpt lat="59.5957961" lon="17.5162132">
        <ele>48</ele>
        <time>2013-03-11T20:07:47Z</time>
      </trkpt>
      <trkpt lat="59.5957825" lon="17.5162899">
        <ele>47.4</ele>
        <time>2013-03-11T20:07:48Z</time>
      </trkpt>
      <trkpt lat="59.5957413" lon="17.5165582">
        <ele>47.6</ele>
        <time>2013-03-11T20:07:51Z</time>
      </trkpt>
      <trkpt lat="59.5957334" lon="17.5166477">
        <ele>47.2</ele>
        <time>2013-03-11T20:07:52Z</time>
      </trkpt>
      <trkpt lat="59.5957183" lon="17.5167354">
        <ele>47</ele>
        <time>2013-03-11T20:07:53Z</time>
      </trkpt>
      <trkpt lat="59.595632" lon="17.5170181">
        <ele>47</ele>
        <time>2013-03-11T20:07:56Z</time>
      </trkpt>
      <trkpt lat="59.5955206" lon="17.5173444">
        <ele>47.2</ele>
        <time>2013-03-11T20:07:59Z</time>
      </trkpt>
      <trkpt lat="59.5952953" lon="17.5175203">
        <ele>45.2</ele>
        <time>2013-03-11T20:08:02Z</time>
      </trkpt>
      <trkpt lat="59.5951207" lon="17.5175616">
        <ele>44.6</ele>
        <time>2013-03-11T20:08:04Z</time>
      </trkpt>
      <trkpt lat="59.5950352" lon="17.5175826">
        <ele>44.2</ele>
        <time>2013-03-11T20:08:05Z</time>
      </trkpt>
      <trkpt lat="59.5947948" lon="17.5176479">
        <ele>43.6</ele>
        <time>2013-03-11T20:08:08Z</time>
      </trkpt>
      <trkpt lat="59.5945711" lon="17.5176979">
        <ele>43.4</ele>
        <time>2013-03-11T20:08:11Z</time>
      </trkpt>
      <trkpt lat="59.5943805" lon="17.517763">
        <ele>44.2</ele>
        <time>2013-03-11T20:08:14Z</time>
      </trkpt>
      <trkpt lat="59.5941671" lon="17.5179437">
        <ele>43.8</ele>
        <time>2013-03-11T20:08:18Z</time>
      </trkpt>
      <trkpt lat="59.5940636" lon="17.5180116">
        <ele>43.6</ele>
        <time>2013-03-11T20:08:20Z</time>
      </trkpt>
      <trkpt lat="59.5939635" lon="17.518054">
        <ele>43</ele>
        <time>2013-03-11T20:08:22Z</time>
      </trkpt>
      <trkpt lat="59.5937582" lon="17.5181257">
        <ele>41</ele>
        <time>2013-03-11T20:08:26Z</time>
      </trkpt>
      <trkpt lat="59.5936616" lon="17.5181664">
        <ele>40</ele>
        <time>2013-03-11T20:08:28Z</time>
      </trkpt>
      <trkpt lat="59.593562" lon="17.5182305">
        <ele>39</ele>
        <time>2013-03-11T20:08:30Z</time>
      </trkpt>
      <trkpt lat="59.5934092" lon="17.5183981">
        <ele>39</ele>
        <time>2013-03-11T20:08:33Z</time>
      </trkpt>
      <trkpt lat="59.5933621" lon="17.5184617">
        <ele>39.6</ele>
        <time>2013-03-11T20:08:34Z</time>
      </trkpt>
      <trkpt lat="59.593316" lon="17.5185171">
        <ele>39.6</ele>
        <time>2013-03-11T20:08:35Z</time>
      </trkpt>
      <trkpt lat="59.5931704" lon="17.5186208">
        <ele>38.8</ele>
        <time>2013-03-11T20:08:38Z</time>
      </trkpt>
      <trkpt lat="59.5931213" lon="17.5186391">
        <ele>37.8</ele>
        <time>2013-03-11T20:08:39Z</time>
      </trkpt>
      <trkpt lat="59.5929609" lon="17.5186365">
        <ele>37</ele>
        <time>2013-03-11T20:08:42Z</time>
      </trkpt>
      <trkpt lat="59.5928073" lon="17.5184758">
        <ele>37.8</ele>
        <time>2013-03-11T20:08:45Z</time>
      </trkpt>
      <trkpt lat="59.5927654" lon="17.5184158">
        <ele>37.8</ele>
        <time>2013-03-11T20:08:46Z</time>
      </trkpt>
      <trkpt lat="59.592672" lon="17.5182918">
        <ele>38</ele>
        <time>2013-03-11T20:08:48Z</time>
      </trkpt>
      <trkpt lat="59.5925949" lon="17.5181426">
        <ele>37.2</ele>
        <time>2013-03-11T20:08:50Z</time>
      </trkpt>
      <trkpt lat="59.5925146" lon="17.5177411">
        <ele>36.6</ele>
        <time>2013-03-11T20:08:54Z</time>
      </trkpt>
      <trkpt lat="59.5925504" lon="17.517306">
        <ele>40.2</ele>
        <time>2013-03-11T20:08:58Z</time>
      </trkpt>
      <trkpt lat="59.5925633" lon="17.5170948">
        <ele>41.2</ele>
        <time>2013-03-11T20:09:00Z</time>
      </trkpt>
      <trkpt lat="59.5925688" lon="17.516995">
        <ele>40.8</ele>
        <time>2013-03-11T20:09:01Z</time>
      </trkpt>
      <trkpt lat="59.592576" lon="17.5168794">
        <ele>40.4</ele>
        <time>2013-03-11T20:09:02Z</time>
      </trkpt>
      <trkpt lat="59.5925914" lon="17.516737">
        <ele>39.8</ele>
        <time>2013-03-11T20:09:03Z</time>
      </trkpt>
      <trkpt lat="59.592656" lon="17.5164591">
        <ele>39.4</ele>
        <time>2013-03-11T20:09:05Z</time>
      </trkpt>
      <trkpt lat="59.592796" lon="17.5161073">
        <ele>37.6</ele>
        <time>2013-03-11T20:09:08Z</time>
      </trkpt>
      <trkpt lat="59.5929304" lon="17.515729">
        <ele>36.2</ele>
        <time>2013-03-11T20:09:11Z</time>
      </trkpt>
      <trkpt lat="59.5930659" lon="17.5153363">
        <ele>34</ele>
        <time>2013-03-11T20:09:14Z</time>
      </trkpt>
      <trkpt lat="59.5932102" lon="17.5149675">
        <ele>32.2</ele>
        <time>2013-03-11T20:09:17Z</time>
      </trkpt>
      <trkpt lat="59.5933884" lon="17.5147172">
        <ele>31.8</ele>
        <time>2013-03-11T20:09:20Z</time>
      </trkpt>
      <trkpt lat="59.5934442" lon="17.5146614">
        <ele>31.8</ele>
        <time>2013-03-11T20:09:21Z</time>
      </trkpt>
      <trkpt lat="59.5934988" lon="17.5146188">
        <ele>31.4</ele>
        <time>2013-03-11T20:09:22Z</time>
      </trkpt>
      <trkpt lat="59.5936092" lon="17.5145551">
        <ele>30.2</ele>
        <time>2013-03-11T20:09:24Z</time>
      </trkpt>
      <trkpt lat="59.5937764" lon="17.5145259">
        <ele>29.2</ele>
        <time>2013-03-11T20:09:27Z</time>
      </trkpt>
      <trkpt lat="59.5938283" lon="17.5145489">
        <ele>29.2</ele>
        <time>2013-03-11T20:09:28Z</time>
      </trkpt>
      <trkpt lat="59.5939247" lon="17.51467">
        <ele>29</ele>
        <time>2013-03-11T20:09:31Z</time>
      </trkpt>
      <trkpt lat="59.5939868" lon="17.5147805">
        <ele>28.6</ele>
        <time>2013-03-11T20:09:33Z</time>
      </trkpt>
      <trkpt lat="59.5940788" lon="17.5149502">
        <ele>30.4</ele>
        <time>2013-03-11T20:09:36Z</time>
      </trkpt>
      <trkpt lat="59.594134" lon="17.5150524">
        <ele>31.2</ele>
        <time>2013-03-11T20:09:38Z</time>
      </trkpt>
      <trkpt lat="59.5943055" lon="17.5152632">
        <ele>34.2</ele>
        <time>2013-03-11T20:09:44Z</time>
      </trkpt>
      <trkpt lat="59.5944933" lon="17.5154101">
        <ele>39</ele>
        <time>2013-03-11T20:09:50Z</time>
      </trkpt>
      <trkpt lat="59.5946769" lon="17.5155366">
        <ele>39.4</ele>
        <time>2013-03-11T20:09:56Z</time>
      </trkpt>
      <trkpt lat="59.5948507" lon="17.5156028">
        <ele>39.4</ele>
        <time>2013-03-11T20:10:00Z</time>
      </trkpt>
      <trkpt lat="59.5950288" lon="17.5156735">
        <ele>39.2</ele>
        <time>2013-03-11T20:10:04Z</time>
      </trkpt>
      <trkpt lat="59.5952223" lon="17.5156412">
        <ele>37.4</ele>
        <time>2013-03-11T20:10:09Z</time>
      </trkpt>
      <trkpt lat="59.5953906" lon="17.5153948">
        <ele>35.8</ele>
        <time>2013-03-11T20:10:15Z</time>
      </trkpt>
      <trkpt lat="59.5955363" lon="17.5150626">
        <ele>38.6</ele>
        <time>2013-03-11T20:10:20Z</time>
      </trkpt>
      <trkpt lat="59.5955968" lon="17.5149006">
        <ele>40.8</ele>
        <time>2013-03-11T20:10:22Z</time>
      </trkpt>
      <trkpt lat="59.595636" lon="17.5147033">
        <ele>40.8</ele>
        <time>2013-03-11T20:10:24Z</time>
      </trkpt>
      <trkpt lat="59.595661" lon="17.5146012">
        <ele>40.2</ele>
        <time>2013-03-11T20:10:25Z</time>
      </trkpt>
      <trkpt lat="59.5957162" lon="17.5143323">
        <ele>39.6</ele>
        <time>2013-03-11T20:10:28Z</time>
      </trkpt>
      <trkpt lat="59.5957257" lon="17.5141425">
        <ele>38.8</ele>
        <time>2013-03-11T20:10:30Z</time>
      </trkpt>
      <trkpt lat="59.5957302" lon="17.5139388">
        <ele>37.8</ele>
        <time>2013-03-11T20:10:32Z</time>
      </trkpt>
      <trkpt lat="59.595738" lon="17.5135697">
        <ele>34.8</ele>
        <time>2013-03-11T20:10:35Z</time>
      </trkpt>
      <trkpt lat="59.5957636" lon="17.5132859">
        <ele>33.2</ele>
        <time>2013-03-11T20:10:37Z</time>
      </trkpt>
      <trkpt lat="59.595794" lon="17.5131363">
        <ele>32.6</ele>
        <time>2013-03-11T20:10:38Z</time>
      </trkpt>
      <trkpt lat="59.5959703" lon="17.5128002">
        <ele>31.8</ele>
        <time>2013-03-11T20:10:41Z</time>
      </trkpt>
      <trkpt lat="59.596208" lon="17.5126647">
        <ele>31.6</ele>
        <time>2013-03-11T20:10:44Z</time>
      </trkpt>
      <trkpt lat="59.5964208" lon="17.5125805">
        <ele>32.6</ele>
        <time>2013-03-11T20:10:47Z</time>
      </trkpt>
      <trkpt lat="59.5966549" lon="17.5125551">
        <ele>32.8</ele>
        <time>2013-03-11T20:10:51Z</time>
      </trkpt>
      <trkpt lat="59.5967567" lon="17.5125432">
        <ele>31.8</ele>
        <time>2013-03-11T20:10:53Z</time>
      </trkpt>
      <trkpt lat="59.5968395" lon="17.5125175">
        <ele>31</ele>
        <time>2013-03-11T20:10:55Z</time>
      </trkpt>
      <trkpt lat="59.5970354" lon="17.5124369">
        <ele>29.6</ele>
        <time>2013-03-11T20:10:59Z</time>
      </trkpt>
      <trkpt lat="59.5971506" lon="17.5123896">
        <ele>28.2</ele>
        <time>2013-03-11T20:11:01Z</time>
      </trkpt>
      <trkpt lat="59.5972559" lon="17.5123373">
        <ele>26.6</ele>
        <time>2013-03-11T20:11:03Z</time>
      </trkpt>
      <trkpt lat="59.5974595" lon="17.512253">
        <ele>24.4</ele>
        <time>2013-03-11T20:11:07Z</time>
      </trkpt>
      <trkpt lat="59.5976606" lon="17.5121146">
        <ele>22</ele>
        <time>2013-03-11T20:11:11Z</time>
      </trkpt>
      <trkpt lat="59.5978221" lon="17.5119825">
        <ele>20.6</ele>
        <time>2013-03-11T20:11:14Z</time>
      </trkpt>
      <trkpt lat="59.59788" lon="17.5119299">
        <ele>19.8</ele>
        <time>2013-03-11T20:11:15Z</time>
      </trkpt>
      <trkpt lat="59.5980484" lon="17.5117251">
        <ele>17.8</ele>
        <time>2013-03-11T20:11:18Z</time>
      </trkpt>
      <trkpt lat="59.5981438" lon="17.5115585">
        <ele>17.4</ele>
        <time>2013-03-11T20:11:20Z</time>
      </trkpt>
      <trkpt lat="59.5981883" lon="17.5114619">
        <ele>16.6</ele>
        <time>2013-03-11T20:11:21Z</time>
      </trkpt>
      <trkpt lat="59.5983111" lon="17.5112881">
        <ele>16.8</ele>
        <time>2013-03-11T20:11:23Z</time>
      </trkpt>
      <trkpt lat="59.5983837" lon="17.5112256">
        <ele>18</ele>
        <time>2013-03-11T20:11:24Z</time>
      </trkpt>
      <trkpt lat="59.5985936" lon="17.5111253">
        <ele>20.2</ele>
        <time>2013-03-11T20:11:27Z</time>
      </trkpt>
      <trkpt lat="59.5986515" lon="17.5111016">
        <ele>19.8</ele>
        <time>2013-03-11T20:11:28Z</time>
      </trkpt>
      <trkpt lat="59.5987633" lon="17.511048">
        <ele>19.6</ele>
        <time>2013-03-11T20:11:30Z</time>
      </trkpt>
      <trkpt lat="59.5988207" lon="17.5110098">
        <ele>19.4</ele>
        <time>2013-03-11T20:11:31Z</time>
      </trkpt>
      <trkpt lat="59.5989973" lon="17.5109052">
        <ele>19.6</ele>
        <time>2013-03-11T20:11:34Z</time>
      </trkpt>
      <trkpt lat="59.5991128" lon="17.5108675">
        <ele>19.2</ele>
        <time>2013-03-11T20:11:36Z</time>
      </trkpt>
      <trkpt lat="59.5991752" lon="17.5108948">
        <ele>19</ele>
        <time>2013-03-11T20:11:37Z</time>
      </trkpt>
      <trkpt lat="59.5993439" lon="17.5110901">
        <ele>19.8</ele>
        <time>2013-03-11T20:11:40Z</time>
      </trkpt>
      <trkpt lat="59.5994521" lon="17.5113418">
        <ele>20.2</ele>
        <time>2013-03-11T20:11:43Z</time>
      </trkpt>
      <trkpt lat="59.5994797" lon="17.5114277">
        <ele>20.6</ele>
        <time>2013-03-11T20:11:44Z</time>
      </trkpt>
      <trkpt lat="59.5995109" lon="17.5115843">
        <ele>21.8</ele>
        <time>2013-03-11T20:11:46Z</time>
      </trkpt>
      <trkpt lat="59.5994907" lon="17.5118363">
        <ele>26.4</ele>
        <time>2013-03-11T20:11:49Z</time>
      </trkpt>
      <trkpt lat="59.5994744" lon="17.5119236">
        <ele>27.6</ele>
        <time>2013-03-11T20:11:50Z</time>
      </trkpt>
      <trkpt lat="59.5994386" lon="17.5121032">
        <ele>29.6</ele>
        <time>2013-03-11T20:11:52Z</time>
      </trkpt>
      <trkpt lat="59.5994192" lon="17.5121961">
        <ele>30.6</ele>
        <time>2013-03-11T20:11:53Z</time>
      </trkpt>
      <trkpt lat="59.5992592" lon="17.512331">
        <ele>34.6</ele>
        <time>2013-03-11T20:11:57Z</time>
      </trkpt>
      <trkpt lat="59.5992211" lon="17.5123619">
        <ele>34.8</ele>
        <time>2013-03-11T20:11:58Z</time>
      </trkpt>
      <trkpt lat="59.5991857" lon="17.5124049">
        <ele>35.4</ele>
        <time>2013-03-11T20:11:59Z</time>
      </trkpt>
      <trkpt lat="59.5991131" lon="17.5126508">
        <ele>36.4</ele>
        <time>2013-03-11T20:12:03Z</time>
      </trkpt>
      <trkpt lat="59.599141" lon="17.5130021">
        <ele>37</ele>
        <time>2013-03-11T20:12:07Z</time>
      </trkpt>
      <trkpt lat="59.5991444" lon="17.5131013">
        <ele>37.6</ele>
        <time>2013-03-11T20:12:08Z</time>
      </trkpt>
      <trkpt lat="59.5991337" lon="17.5131954">
        <ele>37.6</ele>
        <time>2013-03-11T20:12:09Z</time>
      </trkpt>
      <trkpt lat="59.5990856" lon="17.5133844">
        <ele>39</ele>
        <time>2013-03-11T20:12:11Z</time>
      </trkpt>
      <trkpt lat="59.5990254" lon="17.5135175">
        <ele>40.2</ele>
        <time>2013-03-11T20:12:13Z</time>
      </trkpt>
      <trkpt lat="59.5989929" lon="17.5135781">
        <ele>40.2</ele>
        <time>2013-03-11T20:12:14Z</time>
      </trkpt>
      <trkpt lat="59.5989553" lon="17.5136464">
        <ele>40.8</ele>
        <time>2013-03-11T20:12:15Z</time>
      </trkpt>
      <trkpt lat="59.598826" lon="17.5137953">
        <ele>42</ele>
        <time>2013-03-11T20:12:18Z</time>
      </trkpt>
      <trkpt lat="59.598785" lon="17.5138302">
        <ele>43.2</ele>
        <time>2013-03-11T20:12:19Z</time>
      </trkpt>
      <trkpt lat="59.5987174" lon="17.5138704">
        <ele>44.4</ele>
        <time>2013-03-11T20:12:21Z</time>
      </trkpt>
      <trkpt lat="59.5986523" lon="17.513897">
        <ele>46</ele>
        <time>2013-03-11T20:12:23Z</time>
      </trkpt>
      <trkpt lat="59.5985842" lon="17.5139106">
        <ele>48.2</ele>
        <time>2013-03-11T20:12:26Z</time>
      </trkpt>
      <trkpt lat="59.5984798" lon="17.5138787">
        <ele>47</ele>
        <time>2013-03-11T20:12:29Z</time>
      </trkpt>
      <trkpt lat="59.5984065" lon="17.5138588">
        <ele>46.4</ele>
        <time>2013-03-11T20:12:31Z</time>
      </trkpt>
      <trkpt lat="59.5982172" lon="17.5139006">
        <ele>46.8</ele>
        <time>2013-03-11T20:12:36Z</time>
      </trkpt>
      <trkpt lat="59.5980134" lon="17.5139785">
        <ele>48</ele>
        <time>2013-03-11T20:12:42Z</time>
      </trkpt>
      <trkpt lat="59.5979742" lon="17.5140132">
        <ele>47.6</ele>
        <time>2013-03-11T20:12:43Z</time>
      </trkpt>
      <trkpt lat="59.5978289" lon="17.5141897">
        <ele>48.2</ele>
        <time>2013-03-11T20:12:47Z</time>
      </trkpt>
      <trkpt lat="59.59767" lon="17.5144319">
        <ele>47</ele>
        <time>2013-03-11T20:12:52Z</time>
      </trkpt>
      <trkpt lat="59.5974686" lon="17.5145774">
        <ele>44.8</ele>
        <time>2013-03-11T20:12:57Z</time>
      </trkpt>
      <trkpt lat="59.5974154" lon="17.514588">
        <ele>44.2</ele>
        <time>2013-03-11T20:12:58Z</time>
      </trkpt>
      <trkpt lat="59.5972873" lon="17.5146256">
        <ele>43.2</ele>
        <time>2013-03-11T20:13:01Z</time>
      </trkpt>
      <trkpt lat="59.5972503" lon="17.5146316">
        <ele>42.6</ele>
        <time>2013-03-11T20:13:02Z</time>
      </trkpt>
      <trkpt lat="59.5970746" lon="17.5146411">
        <ele>41.4</ele>
        <time>2013-03-11T20:13:07Z</time>
      </trkpt>
      <trkpt lat="59.5968954" lon="17.5147498">
        <ele>40.4</ele>
        <time>2013-03-11T20:13:12Z</time>
      </trkpt>
      <trkpt lat="59.5967058" lon="17.5149736">
        <ele>41.2</ele>
        <time>2013-03-11T20:13:17Z</time>
      </trkpt>
      <trkpt lat="59.5965499" lon="17.5151534">
        <ele>44.8</ele>
        <time>2013-03-11T20:13:22Z</time>
      </trkpt>
      <trkpt lat="59.5964684" lon="17.5152165">
        <ele>46</ele>
        <time>2013-03-11T20:13:24Z</time>
      </trkpt>
      <trkpt lat="59.5963734" lon="17.5152823">
        <ele>47.4</ele>
        <time>2013-03-11T20:13:26Z</time>
      </trkpt>
      <trkpt lat="59.5963043" lon="17.5153365">
        <ele>47.2</ele>
        <time>2013-03-11T20:13:28Z</time>
      </trkpt>
      <trkpt lat="59.5961918" lon="17.515451">
        <ele>47.4</ele>
        <time>2013-03-11T20:13:31Z</time>
      </trkpt>
      <trkpt lat="59.5960273" lon="17.5156553">
        <ele>46.8</ele>
        <time>2013-03-11T20:13:36Z</time>
      </trkpt>
      <trkpt lat="59.5958786" lon="17.5158536">
        <ele>48.6</ele>
        <time>2013-03-11T20:13:40Z</time>
      </trkpt>
      <trkpt lat="59.5958488" lon="17.5159141">
        <ele>49.6</ele>
        <time>2013-03-11T20:13:41Z</time>
      </trkpt>
      <trkpt lat="59.5957837" lon="17.5160897">
        <ele>50.8</ele>
        <time>2013-03-11T20:13:44Z</time>
      </trkpt>
      <trkpt lat="59.5957387" lon="17.5162769">
        <ele>50.8</ele>
        <time>2013-03-11T20:13:47Z</time>
      </trkpt>
      <trkpt lat="59.5956797" lon="17.5166898">
        <ele>52.2</ele>
        <time>2013-03-11T20:13:52Z</time>
      </trkpt>
      <trkpt lat="59.5955741" lon="17.5170431">
        <ele>52</ele>
        <time>2013-03-11T20:13:56Z</time>
      </trkpt>
      <trkpt lat="59.5954821" lon="17.5172404">
        <ele>52.4</ele>
        <time>2013-03-11T20:13:58Z</time>
      </trkpt>
      <trkpt lat="59.5954269" lon="17.517335">
        <ele>51.2</ele>
        <time>2013-03-11T20:13:59Z</time>
      </trkpt>
      <trkpt lat="59.5953528" lon="17.5174071">
        <ele>50</ele>
        <time>2013-03-11T20:14:00Z</time>
      </trkpt>
      <trkpt lat="59.5951705" lon="17.5174709">
        <ele>49</ele>
        <time>2013-03-11T20:14:02Z</time>
      </trkpt>
      <trkpt lat="59.5949172" lon="17.5175495">
        <ele>47.8</ele>
        <time>2013-03-11T20:14:05Z</time>
      </trkpt>
      <trkpt lat="59.5946821" lon="17.5176147">
        <ele>46.8</ele>
        <time>2013-03-11T20:14:08Z</time>
      </trkpt>
      <trkpt lat="59.5944675" lon="17.517673">
        <ele>45.8</ele>
        <time>2013-03-11T20:14:11Z</time>
      </trkpt>
      <trkpt lat="59.5942893" lon="17.5177729">
        <ele>45.8</ele>
        <time>2013-03-11T20:14:14Z</time>
      </trkpt>
      <trkpt lat="59.5941008" lon="17.5179476">
        <ele>44.8</ele>
        <time>2013-03-11T20:14:18Z</time>
      </trkpt>
      <trkpt lat="59.5939444" lon="17.5180512">
        <ele>46.2</ele>
        <time>2013-03-11T20:14:21Z</time>
      </trkpt>
      <trkpt lat="59.5939017" lon="17.5180849">
        <ele>46.4</ele>
        <time>2013-03-11T20:14:22Z</time>
      </trkpt>
      <trkpt lat="59.5937124" lon="17.5181805">
        <ele>47.4</ele>
        <time>2013-03-11T20:14:27Z</time>
      </trkpt>
      <trkpt lat="59.5935175" lon="17.5183139">
        <ele>45.6</ele>
        <time>2013-03-11T20:14:32Z</time>
      </trkpt>
      <trkpt lat="59.5933836" lon="17.5184755">
        <ele>45.2</ele>
        <time>2013-03-11T20:14:36Z</time>
      </trkpt>
      <trkpt lat="59.5933459" lon="17.518508">
        <ele>44.8</ele>
        <time>2013-03-11T20:14:37Z</time>
      </trkpt>
      <trkpt lat="59.5931559" lon="17.5186468">
        <ele>43.4</ele>
        <time>2013-03-11T20:14:42Z</time>
      </trkpt>
      <trkpt lat="59.5930761" lon="17.518652">
        <ele>42.8</ele>
        <time>2013-03-11T20:14:44Z</time>
      </trkpt>
      <trkpt lat="59.592983" lon="17.5186225">
        <ele>43.6</ele>
        <time>2013-03-11T20:14:46Z</time>
      </trkpt>
      <trkpt lat="59.5929421" lon="17.518586">
        <ele>42.8</ele>
        <time>2013-03-11T20:14:47Z</time>
      </trkpt>
      <trkpt lat="59.5928001" lon="17.5184339">
        <ele>42.2</ele>
        <time>2013-03-11T20:14:50Z</time>
      </trkpt>
      <trkpt lat="59.5927587" lon="17.5183745">
        <ele>41.8</ele>
        <time>2013-03-11T20:14:51Z</time>
      </trkpt>
      <trkpt lat="59.5926254" lon="17.518221">
        <ele>40.6</ele>
        <time>2013-03-11T20:14:54Z</time>
      </trkpt>
      <trkpt lat="59.5925878" lon="17.5181722">
        <ele>40.2</ele>
        <time>2013-03-11T20:14:55Z</time>
      </trkpt>
    </trkseg>
  </trk>
</gpx>